<?xml version="1.0" encoding="UTF-8" standalone="no" ?>
<gpx xmlns="http://www.topografix.com/GPX/1/1" xmlns:xsi="http://www.w3.org/2001/XMLSchema-instance" xsi:schemaLocation="http://www.topografix.com/GPX/1/1 http://www.topografix.com/GPX/1/1/gpx.xsd" version="1.1" creator="VisuGPX - https://www.visugpx.com">
  <metadata>
    <name>Les Molières</name>
    <desc><![CDATA[Rando Les Molières]]></desc>
  </metadata>
  <trk>
    <name><![CDATA[2016-03-06 12:05:18]]></name>
    <trkseg>
      <trkpt lat="48.67342" lon="2.06995">
        <ele>159.75</ele>
        <time>2016-03-06T08:16:35Z</time>
      </trkpt>
      <trkpt lat="48.67343" lon="2.06977">
        <ele>159.27</ele>
        <time>2016-03-06T08:16:55Z</time>
      </trkpt>
      <trkpt lat="48.67342" lon="2.06975">
        <ele>159.32</ele>
        <time>2016-03-06T08:16:56Z</time>
      </trkpt>
      <trkpt lat="48.67337" lon="2.06963">
        <ele>159.62</ele>
        <time>2016-03-06T08:17:05Z</time>
      </trkpt>
      <trkpt lat="48.67336" lon="2.06962">
        <ele>159.64</ele>
        <time>2016-03-06T08:17:06Z</time>
      </trkpt>
      <trkpt lat="48.67335" lon="2.06958">
        <ele>159.62</ele>
        <time>2016-03-06T08:17:09Z</time>
      </trkpt>
      <trkpt lat="48.67335" lon="2.06944">
        <ele>159.41</ele>
        <time>2016-03-06T08:17:18Z</time>
      </trkpt>
      <trkpt lat="48.67341" lon="2.06932">
        <ele>159.06</ele>
        <time>2016-03-06T08:17:31Z</time>
      </trkpt>
      <trkpt lat="48.67353" lon="2.06933">
        <ele>158.79</ele>
        <time>2016-03-06T08:17:46Z</time>
      </trkpt>
      <trkpt lat="48.67362" lon="2.06938">
        <ele>158.51</ele>
        <time>2016-03-06T08:17:57Z</time>
      </trkpt>
      <trkpt lat="48.67373" lon="2.06941">
        <ele>158.08</ele>
        <time>2016-03-06T08:18:08Z</time>
      </trkpt>
      <trkpt lat="48.67387" lon="2.06951">
        <ele>157.49</ele>
        <time>2016-03-06T08:18:22Z</time>
      </trkpt>
      <trkpt lat="48.67389" lon="2.06952">
        <ele>157.42</ele>
        <time>2016-03-06T08:18:24Z</time>
      </trkpt>
      <trkpt lat="48.67391" lon="2.06954">
        <ele>157.38</ele>
        <time>2016-03-06T08:18:26Z</time>
      </trkpt>
      <trkpt lat="48.674" lon="2.06961">
        <ele>156.98</ele>
        <time>2016-03-06T08:18:34Z</time>
      </trkpt>
      <trkpt lat="48.67403" lon="2.06962">
        <ele>156.93</ele>
        <time>2016-03-06T08:18:38Z</time>
      </trkpt>
      <trkpt lat="48.67404" lon="2.06962">
        <ele>156.98</ele>
        <time>2016-03-06T08:18:40Z</time>
      </trkpt>
      <trkpt lat="48.67409" lon="2.06964">
        <ele>157.06</ele>
        <time>2016-03-06T08:18:45Z</time>
      </trkpt>
      <trkpt lat="48.67419" lon="2.06966">
        <ele>156.82</ele>
        <time>2016-03-06T08:18:53Z</time>
      </trkpt>
      <trkpt lat="48.67424" lon="2.06965">
        <ele>156.66</ele>
        <time>2016-03-06T08:18:57Z</time>
      </trkpt>
      <trkpt lat="48.67439" lon="2.06973">
        <ele>156.19</ele>
        <time>2016-03-06T08:19:11Z</time>
      </trkpt>
      <trkpt lat="48.67442" lon="2.06976">
        <ele>156.21</ele>
        <time>2016-03-06T08:19:14Z</time>
      </trkpt>
      <trkpt lat="48.67447" lon="2.0698">
        <ele>156.28</ele>
        <time>2016-03-06T08:19:18Z</time>
      </trkpt>
      <trkpt lat="48.67449" lon="2.06982">
        <ele>156.22</ele>
        <time>2016-03-06T08:19:20Z</time>
      </trkpt>
      <trkpt lat="48.6746" lon="2.06993">
        <ele>155.89</ele>
        <time>2016-03-06T08:19:31Z</time>
      </trkpt>
      <trkpt lat="48.67471" lon="2.07006">
        <ele>155.45</ele>
        <time>2016-03-06T08:19:42Z</time>
      </trkpt>
      <trkpt lat="48.67474" lon="2.0701">
        <ele>155.26</ele>
        <time>2016-03-06T08:19:46Z</time>
      </trkpt>
      <trkpt lat="48.67487" lon="2.07023">
        <ele>155.3</ele>
        <time>2016-03-06T08:19:57Z</time>
      </trkpt>
      <trkpt lat="48.67488" lon="2.07025">
        <ele>155.08</ele>
        <time>2016-03-06T08:19:59Z</time>
      </trkpt>
      <trkpt lat="48.67497" lon="2.07033">
        <ele>154.79</ele>
        <time>2016-03-06T08:20:06Z</time>
      </trkpt>
      <trkpt lat="48.67498" lon="2.07042">
        <ele>154.61</ele>
        <time>2016-03-06T08:20:11Z</time>
      </trkpt>
      <trkpt lat="48.67499" lon="2.07046">
        <ele>154.58</ele>
        <time>2016-03-06T08:20:13Z</time>
      </trkpt>
      <trkpt lat="48.67501" lon="2.07054">
        <ele>154.51</ele>
        <time>2016-03-06T08:20:17Z</time>
      </trkpt>
      <trkpt lat="48.67512" lon="2.07061">
        <ele>154.26</ele>
        <time>2016-03-06T08:20:29Z</time>
      </trkpt>
      <trkpt lat="48.67517" lon="2.07065">
        <ele>154.32</ele>
        <time>2016-03-06T08:20:34Z</time>
      </trkpt>
      <trkpt lat="48.67525" lon="2.07066">
        <ele>154.1</ele>
        <time>2016-03-06T08:20:44Z</time>
      </trkpt>
      <trkpt lat="48.67528" lon="2.07058">
        <ele>153.74</ele>
        <time>2016-03-06T08:20:49Z</time>
      </trkpt>
      <trkpt lat="48.67533" lon="2.07047">
        <ele>153.74</ele>
        <time>2016-03-06T08:20:57Z</time>
      </trkpt>
      <trkpt lat="48.67538" lon="2.07039">
        <ele>153.72</ele>
        <time>2016-03-06T08:21:02Z</time>
      </trkpt>
      <trkpt lat="48.67554" lon="2.07012">
        <ele>153.57</ele>
        <time>2016-03-06T08:21:21Z</time>
      </trkpt>
      <trkpt lat="48.67555" lon="2.0701">
        <ele>153.51</ele>
        <time>2016-03-06T08:21:22Z</time>
      </trkpt>
      <trkpt lat="48.67557" lon="2.07006">
        <ele>153.44</ele>
        <time>2016-03-06T08:21:25Z</time>
      </trkpt>
      <trkpt lat="48.67564" lon="2.06992">
        <ele>153.14</ele>
        <time>2016-03-06T08:21:34Z</time>
      </trkpt>
      <trkpt lat="48.67567" lon="2.06988">
        <ele>152.97</ele>
        <time>2016-03-06T08:21:37Z</time>
      </trkpt>
      <trkpt lat="48.67568" lon="2.06986">
        <ele>152.73</ele>
        <time>2016-03-06T08:21:39Z</time>
      </trkpt>
      <trkpt lat="48.67574" lon="2.06977">
        <ele>152.53</ele>
        <time>2016-03-06T08:21:45Z</time>
      </trkpt>
      <trkpt lat="48.67576" lon="2.06974">
        <ele>152.53</ele>
        <time>2016-03-06T08:21:47Z</time>
      </trkpt>
      <trkpt lat="48.67583" lon="2.06963">
        <ele>152.64</ele>
        <time>2016-03-06T08:21:55Z</time>
      </trkpt>
      <trkpt lat="48.67585" lon="2.06961">
        <ele>152.59</ele>
        <time>2016-03-06T08:21:57Z</time>
      </trkpt>
      <trkpt lat="48.67593" lon="2.06965">
        <ele>151.81</ele>
        <time>2016-03-06T08:22:21Z</time>
      </trkpt>
      <trkpt lat="48.67607" lon="2.06973">
        <ele>151.11</ele>
        <time>2016-03-06T08:22:33Z</time>
      </trkpt>
      <trkpt lat="48.67609" lon="2.06974">
        <ele>150.99</ele>
        <time>2016-03-06T08:22:36Z</time>
      </trkpt>
      <trkpt lat="48.67613" lon="2.06978">
        <ele>151.12</ele>
        <time>2016-03-06T08:22:42Z</time>
      </trkpt>
      <trkpt lat="48.67624" lon="2.06984">
        <ele>150.56</ele>
        <time>2016-03-06T08:22:52Z</time>
      </trkpt>
      <trkpt lat="48.67627" lon="2.06988">
        <ele>150.42</ele>
        <time>2016-03-06T08:22:56Z</time>
      </trkpt>
      <trkpt lat="48.67651" lon="2.06998">
        <ele>148.96</ele>
        <time>2016-03-06T08:23:15Z</time>
      </trkpt>
      <trkpt lat="48.67658" lon="2.07002">
        <ele>148.4</ele>
        <time>2016-03-06T08:23:21Z</time>
      </trkpt>
      <trkpt lat="48.6766" lon="2.07004">
        <ele>148.24</ele>
        <time>2016-03-06T08:23:23Z</time>
      </trkpt>
      <trkpt lat="48.6767" lon="2.07009">
        <ele>147.68</ele>
        <time>2016-03-06T08:23:33Z</time>
      </trkpt>
      <trkpt lat="48.67679" lon="2.07019">
        <ele>146.72</ele>
        <time>2016-03-06T08:23:44Z</time>
      </trkpt>
      <trkpt lat="48.67681" lon="2.0702">
        <ele>146.52</ele>
        <time>2016-03-06T08:23:46Z</time>
      </trkpt>
      <trkpt lat="48.67692" lon="2.07026">
        <ele>145.87</ele>
        <time>2016-03-06T08:23:56Z</time>
      </trkpt>
      <trkpt lat="48.67701" lon="2.0703">
        <ele>145.67</ele>
        <time>2016-03-06T08:24:02Z</time>
      </trkpt>
      <trkpt lat="48.67706" lon="2.07034">
        <ele>145.45</ele>
        <time>2016-03-06T08:24:06Z</time>
      </trkpt>
      <trkpt lat="48.67711" lon="2.07038">
        <ele>145.53</ele>
        <time>2016-03-06T08:24:12Z</time>
      </trkpt>
      <trkpt lat="48.67714" lon="2.07043">
        <ele>145.32</ele>
        <time>2016-03-06T08:24:16Z</time>
      </trkpt>
      <trkpt lat="48.67716" lon="2.07047">
        <ele>145.36</ele>
        <time>2016-03-06T08:24:18Z</time>
      </trkpt>
      <trkpt lat="48.67718" lon="2.0705">
        <ele>145.3</ele>
        <time>2016-03-06T08:24:22Z</time>
      </trkpt>
      <trkpt lat="48.67725" lon="2.07061">
        <ele>145.48</ele>
        <time>2016-03-06T08:24:31Z</time>
      </trkpt>
      <trkpt lat="48.67739" lon="2.07077">
        <ele>145.37</ele>
        <time>2016-03-06T08:24:49Z</time>
      </trkpt>
      <trkpt lat="48.67743" lon="2.07085">
        <ele>145.25</ele>
        <time>2016-03-06T08:24:54Z</time>
      </trkpt>
      <trkpt lat="48.67746" lon="2.07087">
        <ele>145.21</ele>
        <time>2016-03-06T08:24:57Z</time>
      </trkpt>
      <trkpt lat="48.6775" lon="2.07093">
        <ele>144.97</ele>
        <time>2016-03-06T08:25:02Z</time>
      </trkpt>
      <trkpt lat="48.67757" lon="2.07103">
        <ele>144.97</ele>
        <time>2016-03-06T08:25:12Z</time>
      </trkpt>
      <trkpt lat="48.67762" lon="2.07114">
        <ele>145.26</ele>
        <time>2016-03-06T08:25:20Z</time>
      </trkpt>
      <trkpt lat="48.6777" lon="2.07128">
        <ele>145.25</ele>
        <time>2016-03-06T08:25:29Z</time>
      </trkpt>
      <trkpt lat="48.67782" lon="2.07142">
        <ele>144.98</ele>
        <time>2016-03-06T08:25:40Z</time>
      </trkpt>
      <trkpt lat="48.6779" lon="2.0715">
        <ele>145.23</ele>
        <time>2016-03-06T08:25:49Z</time>
      </trkpt>
      <trkpt lat="48.67801" lon="2.07157">
        <ele>145.62</ele>
        <time>2016-03-06T08:25:58Z</time>
      </trkpt>
      <trkpt lat="48.67813" lon="2.07163">
        <ele>145.87</ele>
        <time>2016-03-06T08:26:10Z</time>
      </trkpt>
      <trkpt lat="48.67817" lon="2.07163">
        <ele>146.05</ele>
        <time>2016-03-06T08:26:13Z</time>
      </trkpt>
      <trkpt lat="48.67838" lon="2.07164">
        <ele>145.99</ele>
        <time>2016-03-06T08:26:31Z</time>
      </trkpt>
      <trkpt lat="48.67869" lon="2.07172">
        <ele>146.64</ele>
        <time>2016-03-06T08:26:56Z</time>
      </trkpt>
      <trkpt lat="48.6789" lon="2.07173">
        <ele>146.18</ele>
        <time>2016-03-06T08:27:19Z</time>
      </trkpt>
      <trkpt lat="48.67897" lon="2.07174">
        <ele>146.06</ele>
        <time>2016-03-06T08:27:24Z</time>
      </trkpt>
      <trkpt lat="48.6791" lon="2.07179">
        <ele>145.86</ele>
        <time>2016-03-06T08:27:34Z</time>
      </trkpt>
      <trkpt lat="48.67915" lon="2.0718">
        <ele>145.76</ele>
        <time>2016-03-06T08:27:38Z</time>
      </trkpt>
      <trkpt lat="48.67918" lon="2.07181">
        <ele>145.69</ele>
        <time>2016-03-06T08:27:40Z</time>
      </trkpt>
      <trkpt lat="48.6794" lon="2.07187">
        <ele>145.31</ele>
        <time>2016-03-06T08:27:57Z</time>
      </trkpt>
      <trkpt lat="48.67958" lon="2.07192">
        <ele>144.43</ele>
        <time>2016-03-06T08:28:16Z</time>
      </trkpt>
      <trkpt lat="48.67979" lon="2.07183">
        <ele>144.14</ele>
        <time>2016-03-06T08:28:39Z</time>
      </trkpt>
      <trkpt lat="48.68002" lon="2.07167">
        <ele>143.26</ele>
        <time>2016-03-06T08:29:01Z</time>
      </trkpt>
      <trkpt lat="48.68004" lon="2.07165">
        <ele>143.17</ele>
        <time>2016-03-06T08:29:03Z</time>
      </trkpt>
      <trkpt lat="48.6801" lon="2.0716">
        <ele>142.7</ele>
        <time>2016-03-06T08:29:09Z</time>
      </trkpt>
      <trkpt lat="48.68024" lon="2.07156">
        <ele>140.55</ele>
        <time>2016-03-06T08:29:26Z</time>
      </trkpt>
      <trkpt lat="48.68031" lon="2.07154">
        <ele>138.37</ele>
        <time>2016-03-06T08:29:40Z</time>
      </trkpt>
      <trkpt lat="48.68037" lon="2.0715">
        <ele>137.59</ele>
        <time>2016-03-06T08:29:46Z</time>
      </trkpt>
      <trkpt lat="48.68044" lon="2.07148">
        <ele>136.49</ele>
        <time>2016-03-06T08:29:55Z</time>
      </trkpt>
      <trkpt lat="48.68053" lon="2.07146">
        <ele>135.58</ele>
        <time>2016-03-06T08:30:02Z</time>
      </trkpt>
      <trkpt lat="48.6806" lon="2.07134">
        <ele>132.84</ele>
        <time>2016-03-06T08:30:17Z</time>
      </trkpt>
      <trkpt lat="48.68065" lon="2.07113">
        <ele>130.4</ele>
        <time>2016-03-06T08:30:35Z</time>
      </trkpt>
      <trkpt lat="48.68073" lon="2.07101">
        <ele>128.48</ele>
        <time>2016-03-06T08:30:52Z</time>
      </trkpt>
      <trkpt lat="48.6808" lon="2.07085">
        <ele>125.72</ele>
        <time>2016-03-06T08:31:15Z</time>
      </trkpt>
      <trkpt lat="48.68082" lon="2.07076">
        <ele>122.63</ele>
        <time>2016-03-06T08:31:33Z</time>
      </trkpt>
      <trkpt lat="48.68085" lon="2.07062">
        <ele>119.55</ele>
        <time>2016-03-06T08:31:50Z</time>
      </trkpt>
      <trkpt lat="48.6809" lon="2.07053">
        <ele>118.35</ele>
        <time>2016-03-06T08:31:58Z</time>
      </trkpt>
      <trkpt lat="48.68097" lon="2.07037">
        <ele>115.09</ele>
        <time>2016-03-06T08:32:21Z</time>
      </trkpt>
      <trkpt lat="48.68106" lon="2.07021">
        <ele>113.23</ele>
        <time>2016-03-06T08:32:37Z</time>
      </trkpt>
      <trkpt lat="48.68115" lon="2.07002">
        <ele>110.82</ele>
        <time>2016-03-06T08:32:59Z</time>
      </trkpt>
      <trkpt lat="48.68123" lon="2.0698">
        <ele>108.24</ele>
        <time>2016-03-06T08:33:23Z</time>
      </trkpt>
      <trkpt lat="48.68131" lon="2.06962">
        <ele>106.37</ele>
        <time>2016-03-06T08:33:42Z</time>
      </trkpt>
      <trkpt lat="48.6814" lon="2.06936">
        <ele>103.96</ele>
        <time>2016-03-06T08:34:08Z</time>
      </trkpt>
      <trkpt lat="48.68145" lon="2.06924">
        <ele>102.3</ele>
        <time>2016-03-06T08:34:24Z</time>
      </trkpt>
      <trkpt lat="48.68154" lon="2.06908">
        <ele>100.45</ele>
        <time>2016-03-06T08:34:43Z</time>
      </trkpt>
      <trkpt lat="48.68156" lon="2.06901">
        <ele>99.8</ele>
        <time>2016-03-06T08:34:48Z</time>
      </trkpt>
      <trkpt lat="48.68161" lon="2.06896">
        <ele>99.33</ele>
        <time>2016-03-06T08:34:53Z</time>
      </trkpt>
      <trkpt lat="48.68164" lon="2.06892">
        <ele>98.95</ele>
        <time>2016-03-06T08:34:57Z</time>
      </trkpt>
      <trkpt lat="48.68171" lon="2.06887">
        <ele>98.46</ele>
        <time>2016-03-06T08:35:05Z</time>
      </trkpt>
      <trkpt lat="48.6818" lon="2.06881">
        <ele>98.53</ele>
        <time>2016-03-06T08:35:12Z</time>
      </trkpt>
      <trkpt lat="48.6819" lon="2.06872">
        <ele>98.19</ele>
        <time>2016-03-06T08:35:22Z</time>
      </trkpt>
      <trkpt lat="48.682" lon="2.06863">
        <ele>97.44</ele>
        <time>2016-03-06T08:35:34Z</time>
      </trkpt>
      <trkpt lat="48.68224" lon="2.06854">
        <ele>96.93</ele>
        <time>2016-03-06T08:35:53Z</time>
      </trkpt>
      <trkpt lat="48.68241" lon="2.0685">
        <ele>96.62</ele>
        <time>2016-03-06T08:36:10Z</time>
      </trkpt>
      <trkpt lat="48.68256" lon="2.06843">
        <ele>96.88</ele>
        <time>2016-03-06T08:36:25Z</time>
      </trkpt>
      <trkpt lat="48.68269" lon="2.06834">
        <ele>96.88</ele>
        <time>2016-03-06T08:36:38Z</time>
      </trkpt>
      <trkpt lat="48.68273" lon="2.0683">
        <ele>96.93</ele>
        <time>2016-03-06T08:36:44Z</time>
      </trkpt>
      <trkpt lat="48.68278" lon="2.06825">
        <ele>96.88</ele>
        <time>2016-03-06T08:36:49Z</time>
      </trkpt>
      <trkpt lat="48.6828" lon="2.06822">
        <ele>96.81</ele>
        <time>2016-03-06T08:36:52Z</time>
      </trkpt>
      <trkpt lat="48.68285" lon="2.06813">
        <ele>96.71</ele>
        <time>2016-03-06T08:36:59Z</time>
      </trkpt>
      <trkpt lat="48.68294" lon="2.06802">
        <ele>96.74</ele>
        <time>2016-03-06T08:37:07Z</time>
      </trkpt>
      <trkpt lat="48.68298" lon="2.06793">
        <ele>95.88</ele>
        <time>2016-03-06T08:37:18Z</time>
      </trkpt>
      <trkpt lat="48.68292" lon="2.0679">
        <ele>95.61</ele>
        <time>2016-03-06T08:37:25Z</time>
      </trkpt>
      <trkpt lat="48.6828" lon="2.06774">
        <ele>95.47</ele>
        <time>2016-03-06T08:37:37Z</time>
      </trkpt>
      <trkpt lat="48.68272" lon="2.06761">
        <ele>95.65</ele>
        <time>2016-03-06T08:37:48Z</time>
      </trkpt>
      <trkpt lat="48.68265" lon="2.06745">
        <ele>95.88</ele>
        <time>2016-03-06T08:37:59Z</time>
      </trkpt>
      <trkpt lat="48.68259" lon="2.06725">
        <ele>96.23</ele>
        <time>2016-03-06T08:38:11Z</time>
      </trkpt>
      <trkpt lat="48.68256" lon="2.06705">
        <ele>96.88</ele>
        <time>2016-03-06T08:38:20Z</time>
      </trkpt>
      <trkpt lat="48.68254" lon="2.06688">
        <ele>97.5</ele>
        <time>2016-03-06T08:38:29Z</time>
      </trkpt>
      <trkpt lat="48.68253" lon="2.06685">
        <ele>97.52</ele>
        <time>2016-03-06T08:38:31Z</time>
      </trkpt>
      <trkpt lat="48.68253" lon="2.06681">
        <ele>97.55</ele>
        <time>2016-03-06T08:38:33Z</time>
      </trkpt>
      <trkpt lat="48.6825" lon="2.06663">
        <ele>98.09</ele>
        <time>2016-03-06T08:38:43Z</time>
      </trkpt>
      <trkpt lat="48.68247" lon="2.0664">
        <ele>99.25</ele>
        <time>2016-03-06T08:38:56Z</time>
      </trkpt>
      <trkpt lat="48.68243" lon="2.0663">
        <ele>99.98</ele>
        <time>2016-03-06T08:39:02Z</time>
      </trkpt>
      <trkpt lat="48.68242" lon="2.06627">
        <ele>100.13</ele>
        <time>2016-03-06T08:39:04Z</time>
      </trkpt>
      <trkpt lat="48.68241" lon="2.06624">
        <ele>100.38</ele>
        <time>2016-03-06T08:39:06Z</time>
      </trkpt>
      <trkpt lat="48.68236" lon="2.06614">
        <ele>101.35</ele>
        <time>2016-03-06T08:39:14Z</time>
      </trkpt>
      <trkpt lat="48.68237" lon="2.06606">
        <ele>101.77</ele>
        <time>2016-03-06T08:39:18Z</time>
      </trkpt>
      <trkpt lat="48.68243" lon="2.06592">
        <ele>102.83</ele>
        <time>2016-03-06T08:39:26Z</time>
      </trkpt>
      <trkpt lat="48.68232" lon="2.06589">
        <ele>103.2</ele>
        <time>2016-03-06T08:39:29Z</time>
      </trkpt>
      <trkpt lat="48.68228" lon="2.06576">
        <ele>104</ele>
        <time>2016-03-06T08:39:36Z</time>
      </trkpt>
      <trkpt lat="48.68231" lon="2.06555">
        <ele>105.35</ele>
        <time>2016-03-06T08:39:49Z</time>
      </trkpt>
      <trkpt lat="48.68242" lon="2.06519">
        <ele>106.82</ele>
        <time>2016-03-06T08:40:13Z</time>
      </trkpt>
      <trkpt lat="48.68261" lon="2.06497">
        <ele>107.3</ele>
        <time>2016-03-06T08:40:31Z</time>
      </trkpt>
      <trkpt lat="48.68285" lon="2.06468">
        <ele>104.81</ele>
        <time>2016-03-06T08:40:55Z</time>
      </trkpt>
      <trkpt lat="48.68302" lon="2.06444">
        <ele>101.69</ele>
        <time>2016-03-06T08:41:14Z</time>
      </trkpt>
      <trkpt lat="48.68305" lon="2.0644">
        <ele>101.08</ele>
        <time>2016-03-06T08:41:18Z</time>
      </trkpt>
      <trkpt lat="48.68318" lon="2.06424">
        <ele>98.68</ele>
        <time>2016-03-06T08:41:33Z</time>
      </trkpt>
      <trkpt lat="48.6833" lon="2.06407">
        <ele>96.86</ele>
        <time>2016-03-06T08:41:47Z</time>
      </trkpt>
      <trkpt lat="48.68333" lon="2.06401">
        <ele>96.42</ele>
        <time>2016-03-06T08:41:51Z</time>
      </trkpt>
      <trkpt lat="48.68338" lon="2.06399">
        <ele>96.05</ele>
        <time>2016-03-06T08:41:55Z</time>
      </trkpt>
      <trkpt lat="48.68343" lon="2.06388">
        <ele>95.55</ele>
        <time>2016-03-06T08:42:01Z</time>
      </trkpt>
      <trkpt lat="48.68345" lon="2.06374">
        <ele>95.21</ele>
        <time>2016-03-06T08:42:08Z</time>
      </trkpt>
      <trkpt lat="48.68343" lon="2.06342">
        <ele>94.85</ele>
        <time>2016-03-06T08:42:25Z</time>
      </trkpt>
      <trkpt lat="48.68342" lon="2.06338">
        <ele>94.77</ele>
        <time>2016-03-06T08:42:27Z</time>
      </trkpt>
      <trkpt lat="48.68342" lon="2.0633">
        <ele>94.61</ele>
        <time>2016-03-06T08:42:31Z</time>
      </trkpt>
      <trkpt lat="48.68341" lon="2.0632">
        <ele>94.46</ele>
        <time>2016-03-06T08:42:36Z</time>
      </trkpt>
      <trkpt lat="48.6834" lon="2.06293">
        <ele>94.1</ele>
        <time>2016-03-06T08:42:52Z</time>
      </trkpt>
      <trkpt lat="48.68341" lon="2.0629">
        <ele>94.02</ele>
        <time>2016-03-06T08:42:54Z</time>
      </trkpt>
      <trkpt lat="48.6835" lon="2.06269">
        <ele>93.74</ele>
        <time>2016-03-06T08:43:07Z</time>
      </trkpt>
      <trkpt lat="48.6836" lon="2.06256">
        <ele>92.98</ele>
        <time>2016-03-06T08:43:26Z</time>
      </trkpt>
      <trkpt lat="48.68361" lon="2.06255">
        <ele>92.92</ele>
        <time>2016-03-06T08:43:27Z</time>
      </trkpt>
      <trkpt lat="48.68387" lon="2.06238">
        <ele>91.79</ele>
        <time>2016-03-06T08:43:49Z</time>
      </trkpt>
      <trkpt lat="48.68412" lon="2.06237">
        <ele>91.79</ele>
        <time>2016-03-06T08:44:04Z</time>
      </trkpt>
      <trkpt lat="48.68423" lon="2.06245">
        <ele>92.9</ele>
        <time>2016-03-06T08:44:16Z</time>
      </trkpt>
      <trkpt lat="48.68439" lon="2.06257">
        <ele>95.48</ele>
        <time>2016-03-06T08:44:31Z</time>
      </trkpt>
      <trkpt lat="48.68441" lon="2.0626">
        <ele>95.67</ele>
        <time>2016-03-06T08:44:33Z</time>
      </trkpt>
      <trkpt lat="48.6846" lon="2.06285">
        <ele>98.82</ele>
        <time>2016-03-06T08:44:53Z</time>
      </trkpt>
      <trkpt lat="48.68479" lon="2.06289">
        <ele>101.4</ele>
        <time>2016-03-06T08:45:11Z</time>
      </trkpt>
      <trkpt lat="48.6848" lon="2.06289">
        <ele>101.74</ele>
        <time>2016-03-06T08:45:14Z</time>
      </trkpt>
      <trkpt lat="48.68495" lon="2.06291">
        <ele>102.03</ele>
        <time>2016-03-06T08:45:42Z</time>
      </trkpt>
      <trkpt lat="48.68494" lon="2.06295">
        <ele>101.37</ele>
        <time>2016-03-06T08:46:03Z</time>
      </trkpt>
      <trkpt lat="48.68495" lon="2.06295">
        <ele>101.34</ele>
        <time>2016-03-06T08:46:06Z</time>
      </trkpt>
      <trkpt lat="48.68488" lon="2.06286">
        <ele>101.09</ele>
        <time>2016-03-06T08:46:28Z</time>
      </trkpt>
      <trkpt lat="48.6849" lon="2.06283">
        <ele>100.56</ele>
        <time>2016-03-06T08:46:51Z</time>
      </trkpt>
      <trkpt lat="48.68488" lon="2.06278">
        <ele>100.4</ele>
        <time>2016-03-06T08:47:19Z</time>
      </trkpt>
      <trkpt lat="48.6848" lon="2.0628">
        <ele>100.15</ele>
        <time>2016-03-06T08:47:46Z</time>
      </trkpt>
      <trkpt lat="48.68487" lon="2.06283">
        <ele>100.5</ele>
        <time>2016-03-06T08:48:09Z</time>
      </trkpt>
      <trkpt lat="48.685" lon="2.0629">
        <ele>100.61</ele>
        <time>2016-03-06T08:48:40Z</time>
      </trkpt>
      <trkpt lat="48.68498" lon="2.06299">
        <ele>100.88</ele>
        <time>2016-03-06T08:49:11Z</time>
      </trkpt>
      <trkpt lat="48.68499" lon="2.06298">
        <ele>101.03</ele>
        <time>2016-03-06T08:49:40Z</time>
      </trkpt>
      <trkpt lat="48.68488" lon="2.06275">
        <ele>102.72</ele>
        <time>2016-03-06T08:50:03Z</time>
      </trkpt>
      <trkpt lat="48.68478" lon="2.06242">
        <ele>104.17</ele>
        <time>2016-03-06T08:50:28Z</time>
      </trkpt>
      <trkpt lat="48.6847" lon="2.06213">
        <ele>105.64</ele>
        <time>2016-03-06T08:50:50Z</time>
      </trkpt>
      <trkpt lat="48.68466" lon="2.06194">
        <ele>107.03</ele>
        <time>2016-03-06T08:51:05Z</time>
      </trkpt>
      <trkpt lat="48.68451" lon="2.06168">
        <ele>108.59</ele>
        <time>2016-03-06T08:51:26Z</time>
      </trkpt>
      <trkpt lat="48.68434" lon="2.06147">
        <ele>109.69</ele>
        <time>2016-03-06T08:51:49Z</time>
      </trkpt>
      <trkpt lat="48.68427" lon="2.06139">
        <ele>110.22</ele>
        <time>2016-03-06T08:52:00Z</time>
      </trkpt>
      <trkpt lat="48.68424" lon="2.06134">
        <ele>110.36</ele>
        <time>2016-03-06T08:52:05Z</time>
      </trkpt>
      <trkpt lat="48.68411" lon="2.0612">
        <ele>111.02</ele>
        <time>2016-03-06T08:52:22Z</time>
      </trkpt>
      <trkpt lat="48.68396" lon="2.06089">
        <ele>111.95</ele>
        <time>2016-03-06T08:52:42Z</time>
      </trkpt>
      <trkpt lat="48.68394" lon="2.06062">
        <ele>112.26</ele>
        <time>2016-03-06T08:52:55Z</time>
      </trkpt>
      <trkpt lat="48.68382" lon="2.06031">
        <ele>112.38</ele>
        <time>2016-03-06T08:53:16Z</time>
      </trkpt>
      <trkpt lat="48.68369" lon="2.06002">
        <ele>112.5</ele>
        <time>2016-03-06T08:53:38Z</time>
      </trkpt>
      <trkpt lat="48.68356" lon="2.05975">
        <ele>112.53</ele>
        <time>2016-03-06T08:54:01Z</time>
      </trkpt>
      <trkpt lat="48.68341" lon="2.05943">
        <ele>112.93</ele>
        <time>2016-03-06T08:54:22Z</time>
      </trkpt>
      <trkpt lat="48.68331" lon="2.0591">
        <ele>113.12</ele>
        <time>2016-03-06T08:54:44Z</time>
      </trkpt>
      <trkpt lat="48.6832" lon="2.05878">
        <ele>113.61</ele>
        <time>2016-03-06T08:55:07Z</time>
      </trkpt>
      <trkpt lat="48.68308" lon="2.05846">
        <ele>113.89</ele>
        <time>2016-03-06T08:55:28Z</time>
      </trkpt>
      <trkpt lat="48.68297" lon="2.05815">
        <ele>113.88</ele>
        <time>2016-03-06T08:55:48Z</time>
      </trkpt>
      <trkpt lat="48.68285" lon="2.0578">
        <ele>113.98</ele>
        <time>2016-03-06T08:56:10Z</time>
      </trkpt>
      <trkpt lat="48.68276" lon="2.05756">
        <ele>114.2</ele>
        <time>2016-03-06T08:56:23Z</time>
      </trkpt>
      <trkpt lat="48.68266" lon="2.05722">
        <ele>114.01</ele>
        <time>2016-03-06T08:56:44Z</time>
      </trkpt>
      <trkpt lat="48.68253" lon="2.05691">
        <ele>114.36</ele>
        <time>2016-03-06T08:57:06Z</time>
      </trkpt>
      <trkpt lat="48.6825" lon="2.05685">
        <ele>114.33</ele>
        <time>2016-03-06T08:57:10Z</time>
      </trkpt>
      <trkpt lat="48.67725" lon="2.05223">
        <ele>120.39</ele>
        <time>2016-03-06T09:05:56Z</time>
      </trkpt>
      <trkpt lat="48.67706" lon="2.05215">
        <ele>120.93</ele>
        <time>2016-03-06T09:06:13Z</time>
      </trkpt>
      <trkpt lat="48.677" lon="2.05214">
        <ele>120.88</ele>
        <time>2016-03-06T09:06:18Z</time>
      </trkpt>
      <trkpt lat="48.67679" lon="2.05212">
        <ele>121.15</ele>
        <time>2016-03-06T09:06:35Z</time>
      </trkpt>
      <trkpt lat="48.67657" lon="2.05211">
        <ele>121.88</ele>
        <time>2016-03-06T09:06:53Z</time>
      </trkpt>
      <trkpt lat="48.67631" lon="2.05211">
        <ele>122.67</ele>
        <time>2016-03-06T09:07:17Z</time>
      </trkpt>
      <trkpt lat="48.67603" lon="2.05211">
        <ele>123.18</ele>
        <time>2016-03-06T09:07:40Z</time>
      </trkpt>
      <trkpt lat="48.67581" lon="2.05215">
        <ele>123.66</ele>
        <time>2016-03-06T09:07:58Z</time>
      </trkpt>
      <trkpt lat="48.67556" lon="2.05224">
        <ele>123.98</ele>
        <time>2016-03-06T09:08:19Z</time>
      </trkpt>
      <trkpt lat="48.67533" lon="2.05237">
        <ele>124.53</ele>
        <time>2016-03-06T09:08:41Z</time>
      </trkpt>
      <trkpt lat="48.67514" lon="2.0525">
        <ele>125.26</ele>
        <time>2016-03-06T09:09:01Z</time>
      </trkpt>
      <trkpt lat="48.67492" lon="2.05259">
        <ele>125.9</ele>
        <time>2016-03-06T09:09:22Z</time>
      </trkpt>
      <trkpt lat="48.67479" lon="2.0527">
        <ele>126.32</ele>
        <time>2016-03-06T09:09:34Z</time>
      </trkpt>
      <trkpt lat="48.6746" lon="2.0528">
        <ele>126.72</ele>
        <time>2016-03-06T09:09:52Z</time>
      </trkpt>
      <trkpt lat="48.67438" lon="2.0529">
        <ele>127.55</ele>
        <time>2016-03-06T09:10:14Z</time>
      </trkpt>
      <trkpt lat="48.67418" lon="2.05296">
        <ele>128.11</ele>
        <time>2016-03-06T09:10:36Z</time>
      </trkpt>
      <trkpt lat="48.67394" lon="2.05311">
        <ele>128.89</ele>
        <time>2016-03-06T09:11:00Z</time>
      </trkpt>
      <trkpt lat="48.67375" lon="2.05318">
        <ele>129.7</ele>
        <time>2016-03-06T09:11:18Z</time>
      </trkpt>
      <trkpt lat="48.67352" lon="2.05334">
        <ele>130.45</ele>
        <time>2016-03-06T09:11:38Z</time>
      </trkpt>
      <trkpt lat="48.67324" lon="2.0534">
        <ele>131.31</ele>
        <time>2016-03-06T09:12:02Z</time>
      </trkpt>
      <trkpt lat="48.67302" lon="2.05346">
        <ele>132.07</ele>
        <time>2016-03-06T09:12:23Z</time>
      </trkpt>
      <trkpt lat="48.67277" lon="2.05351">
        <ele>133</ele>
        <time>2016-03-06T09:12:47Z</time>
      </trkpt>
      <trkpt lat="48.67248" lon="2.05358">
        <ele>133.64</ele>
        <time>2016-03-06T09:13:11Z</time>
      </trkpt>
      <trkpt lat="48.67224" lon="2.05354">
        <ele>134.22</ele>
        <time>2016-03-06T09:13:34Z</time>
      </trkpt>
      <trkpt lat="48.67199" lon="2.05354">
        <ele>135.22</ele>
        <time>2016-03-06T09:13:57Z</time>
      </trkpt>
      <trkpt lat="48.67175" lon="2.05346">
        <ele>135.92</ele>
        <time>2016-03-06T09:14:20Z</time>
      </trkpt>
      <trkpt lat="48.67154" lon="2.05341">
        <ele>136.21</ele>
        <time>2016-03-06T09:14:40Z</time>
      </trkpt>
      <trkpt lat="48.67134" lon="2.0533">
        <ele>136.69</ele>
        <time>2016-03-06T09:15:01Z</time>
      </trkpt>
      <trkpt lat="48.6711" lon="2.05324">
        <ele>137.45</ele>
        <time>2016-03-06T09:15:23Z</time>
      </trkpt>
      <trkpt lat="48.67085" lon="2.05307">
        <ele>138.37</ele>
        <time>2016-03-06T09:15:48Z</time>
      </trkpt>
      <trkpt lat="48.67062" lon="2.05293">
        <ele>139.09</ele>
        <time>2016-03-06T09:16:09Z</time>
      </trkpt>
      <trkpt lat="48.67039" lon="2.05275">
        <ele>139.76</ele>
        <time>2016-03-06T09:16:30Z</time>
      </trkpt>
      <trkpt lat="48.67015" lon="2.05257">
        <ele>140.71</ele>
        <time>2016-03-06T09:16:54Z</time>
      </trkpt>
      <trkpt lat="48.67006" lon="2.05248">
        <ele>141.21</ele>
        <time>2016-03-06T09:17:02Z</time>
      </trkpt>
      <trkpt lat="48.66989" lon="2.05237">
        <ele>141.49</ele>
        <time>2016-03-06T09:17:19Z</time>
      </trkpt>
      <trkpt lat="48.66969" lon="2.05217">
        <ele>141.87</ele>
        <time>2016-03-06T09:17:40Z</time>
      </trkpt>
      <trkpt lat="48.66962" lon="2.05212">
        <ele>142.18</ele>
        <time>2016-03-06T09:17:46Z</time>
      </trkpt>
      <trkpt lat="48.66955" lon="2.05209">
        <ele>142.22</ele>
        <time>2016-03-06T09:17:51Z</time>
      </trkpt>
      <trkpt lat="48.66939" lon="2.05195">
        <ele>142.87</ele>
        <time>2016-03-06T09:18:08Z</time>
      </trkpt>
      <trkpt lat="48.66925" lon="2.05178">
        <ele>143.26</ele>
        <time>2016-03-06T09:18:25Z</time>
      </trkpt>
      <trkpt lat="48.66918" lon="2.05172">
        <ele>143.39</ele>
        <time>2016-03-06T09:18:48Z</time>
      </trkpt>
      <trkpt lat="48.66916" lon="2.0517">
        <ele>143.91</ele>
        <time>2016-03-06T09:19:02Z</time>
      </trkpt>
      <trkpt lat="48.66916" lon="2.05169">
        <ele>144.25</ele>
        <time>2016-03-06T09:20:06Z</time>
      </trkpt>
      <trkpt lat="48.66917" lon="2.05168">
        <ele>144.52</ele>
        <time>2016-03-06T09:20:35Z</time>
      </trkpt>
      <trkpt lat="48.66917" lon="2.05168">
        <ele>145.4</ele>
        <time>2016-03-06T09:20:42Z</time>
      </trkpt>
      <trkpt lat="48.66903" lon="2.05163">
        <ele>148.29</ele>
        <time>2016-03-06T09:28:11Z</time>
      </trkpt>
      <trkpt lat="48.66899" lon="2.05158">
        <ele>149.04</ele>
        <time>2016-03-06T09:28:31Z</time>
      </trkpt>
      <trkpt lat="48.66893" lon="2.05167">
        <ele>148.95</ele>
        <time>2016-03-06T09:28:48Z</time>
      </trkpt>
      <trkpt lat="48.66888" lon="2.05176">
        <ele>149.71</ele>
        <time>2016-03-06T09:29:08Z</time>
      </trkpt>
      <trkpt lat="48.66886" lon="2.0518">
        <ele>150.28</ele>
        <time>2016-03-06T09:29:35Z</time>
      </trkpt>
      <trkpt lat="48.66884" lon="2.05183">
        <ele>150.15</ele>
        <time>2016-03-06T09:29:51Z</time>
      </trkpt>
      <trkpt lat="48.66839" lon="2.05277">
        <ele>150.74</ele>
        <time>2016-03-06T09:31:23Z</time>
      </trkpt>
      <trkpt lat="48.66825" lon="2.05283">
        <ele>150.73</ele>
        <time>2016-03-06T09:31:37Z</time>
      </trkpt>
      <trkpt lat="48.66809" lon="2.05282">
        <ele>150.42</ele>
        <time>2016-03-06T09:31:51Z</time>
      </trkpt>
      <trkpt lat="48.66795" lon="2.05278">
        <ele>150.56</ele>
        <time>2016-03-06T09:32:05Z</time>
      </trkpt>
      <trkpt lat="48.66781" lon="2.05275">
        <ele>150.95</ele>
        <time>2016-03-06T09:32:21Z</time>
      </trkpt>
      <trkpt lat="48.66779" lon="2.05276">
        <ele>151.4</ele>
        <time>2016-03-06T09:32:26Z</time>
      </trkpt>
      <trkpt lat="48.66776" lon="2.05276">
        <ele>151.4</ele>
        <time>2016-03-06T09:32:29Z</time>
      </trkpt>
      <trkpt lat="48.66765" lon="2.05275">
        <ele>151.18</ele>
        <time>2016-03-06T09:32:38Z</time>
      </trkpt>
      <trkpt lat="48.66743" lon="2.05278">
        <ele>151.14</ele>
        <time>2016-03-06T09:32:55Z</time>
      </trkpt>
      <trkpt lat="48.66723" lon="2.05285">
        <ele>151.7</ele>
        <time>2016-03-06T09:33:13Z</time>
      </trkpt>
      <trkpt lat="48.66703" lon="2.05298">
        <ele>151.8</ele>
        <time>2016-03-06T09:33:32Z</time>
      </trkpt>
      <trkpt lat="48.66687" lon="2.05308">
        <ele>152.13</ele>
        <time>2016-03-06T09:33:48Z</time>
      </trkpt>
      <trkpt lat="48.66672" lon="2.05318">
        <ele>152.11</ele>
        <time>2016-03-06T09:34:03Z</time>
      </trkpt>
      <trkpt lat="48.66655" lon="2.05331">
        <ele>152.1</ele>
        <time>2016-03-06T09:34:20Z</time>
      </trkpt>
      <trkpt lat="48.66638" lon="2.05343">
        <ele>152.35</ele>
        <time>2016-03-06T09:34:38Z</time>
      </trkpt>
      <trkpt lat="48.66618" lon="2.05357">
        <ele>152.91</ele>
        <time>2016-03-06T09:34:58Z</time>
      </trkpt>
      <trkpt lat="48.66599" lon="2.05368">
        <ele>153.22</ele>
        <time>2016-03-06T09:35:17Z</time>
      </trkpt>
      <trkpt lat="48.66581" lon="2.05376">
        <ele>153.85</ele>
        <time>2016-03-06T09:35:34Z</time>
      </trkpt>
      <trkpt lat="48.66562" lon="2.05384">
        <ele>153.78</ele>
        <time>2016-03-06T09:35:53Z</time>
      </trkpt>
      <trkpt lat="48.66542" lon="2.0539">
        <ele>154.21</ele>
        <time>2016-03-06T09:36:13Z</time>
      </trkpt>
      <trkpt lat="48.66521" lon="2.05395">
        <ele>154.49</ele>
        <time>2016-03-06T09:36:33Z</time>
      </trkpt>
      <trkpt lat="48.66504" lon="2.05397">
        <ele>154.57</ele>
        <time>2016-03-06T09:36:49Z</time>
      </trkpt>
      <trkpt lat="48.66486" lon="2.054">
        <ele>154.29</ele>
        <time>2016-03-06T09:37:05Z</time>
      </trkpt>
      <trkpt lat="48.66465" lon="2.05402">
        <ele>154.47</ele>
        <time>2016-03-06T09:37:25Z</time>
      </trkpt>
      <trkpt lat="48.66445" lon="2.05405">
        <ele>154.66</ele>
        <time>2016-03-06T09:37:43Z</time>
      </trkpt>
      <trkpt lat="48.6643" lon="2.05408">
        <ele>154.75</ele>
        <time>2016-03-06T09:37:57Z</time>
      </trkpt>
      <trkpt lat="48.66412" lon="2.0541">
        <ele>155.09</ele>
        <time>2016-03-06T09:38:14Z</time>
      </trkpt>
      <trkpt lat="48.66395" lon="2.05414">
        <ele>155.16</ele>
        <time>2016-03-06T09:38:31Z</time>
      </trkpt>
      <trkpt lat="48.6638" lon="2.05415">
        <ele>155.33</ele>
        <time>2016-03-06T09:38:45Z</time>
      </trkpt>
      <trkpt lat="48.66362" lon="2.05417">
        <ele>155.23</ele>
        <time>2016-03-06T09:39:01Z</time>
      </trkpt>
      <trkpt lat="48.66343" lon="2.05418">
        <ele>155.48</ele>
        <time>2016-03-06T09:39:17Z</time>
      </trkpt>
      <trkpt lat="48.66323" lon="2.05419">
        <ele>155.64</ele>
        <time>2016-03-06T09:39:35Z</time>
      </trkpt>
      <trkpt lat="48.66304" lon="2.05421">
        <ele>155.87</ele>
        <time>2016-03-06T09:39:52Z</time>
      </trkpt>
      <trkpt lat="48.66283" lon="2.05424">
        <ele>156.05</ele>
        <time>2016-03-06T09:40:11Z</time>
      </trkpt>
      <trkpt lat="48.66262" lon="2.05426">
        <ele>156.11</ele>
        <time>2016-03-06T09:40:31Z</time>
      </trkpt>
      <trkpt lat="48.66244" lon="2.05427">
        <ele>156.09</ele>
        <time>2016-03-06T09:40:47Z</time>
      </trkpt>
      <trkpt lat="48.66222" lon="2.0543">
        <ele>156.34</ele>
        <time>2016-03-06T09:41:05Z</time>
      </trkpt>
      <trkpt lat="48.662" lon="2.05433">
        <ele>156.97</ele>
        <time>2016-03-06T09:41:25Z</time>
      </trkpt>
      <trkpt lat="48.6618" lon="2.05434">
        <ele>157.16</ele>
        <time>2016-03-06T09:41:43Z</time>
      </trkpt>
      <trkpt lat="48.6616" lon="2.05432">
        <ele>157.75</ele>
        <time>2016-03-06T09:42:01Z</time>
      </trkpt>
      <trkpt lat="48.6614" lon="2.05429">
        <ele>158.09</ele>
        <time>2016-03-06T09:42:18Z</time>
      </trkpt>
      <trkpt lat="48.66118" lon="2.05425">
        <ele>158.29</ele>
        <time>2016-03-06T09:42:38Z</time>
      </trkpt>
      <trkpt lat="48.66098" lon="2.0542">
        <ele>158.5</ele>
        <time>2016-03-06T09:42:56Z</time>
      </trkpt>
      <trkpt lat="48.66079" lon="2.05417">
        <ele>158.79</ele>
        <time>2016-03-06T09:43:13Z</time>
      </trkpt>
      <trkpt lat="48.66057" lon="2.05412">
        <ele>158.86</ele>
        <time>2016-03-06T09:43:32Z</time>
      </trkpt>
      <trkpt lat="48.66035" lon="2.0541">
        <ele>159.11</ele>
        <time>2016-03-06T09:43:52Z</time>
      </trkpt>
      <trkpt lat="48.66014" lon="2.05407">
        <ele>159.84</ele>
        <time>2016-03-06T09:44:10Z</time>
      </trkpt>
      <trkpt lat="48.65994" lon="2.05403">
        <ele>159.9</ele>
        <time>2016-03-06T09:44:28Z</time>
      </trkpt>
      <trkpt lat="48.65972" lon="2.05399">
        <ele>160.21</ele>
        <time>2016-03-06T09:44:46Z</time>
      </trkpt>
      <trkpt lat="48.6595" lon="2.05395">
        <ele>160.39</ele>
        <time>2016-03-06T09:45:06Z</time>
      </trkpt>
      <trkpt lat="48.65927" lon="2.05392">
        <ele>160.58</ele>
        <time>2016-03-06T09:45:26Z</time>
      </trkpt>
      <trkpt lat="48.6592" lon="2.05391">
        <ele>160.56</ele>
        <time>2016-03-06T09:45:32Z</time>
      </trkpt>
      <trkpt lat="48.65916" lon="2.05389">
        <ele>160.58</ele>
        <time>2016-03-06T09:45:36Z</time>
      </trkpt>
      <trkpt lat="48.65894" lon="2.0538">
        <ele>160.56</ele>
        <time>2016-03-06T09:45:55Z</time>
      </trkpt>
      <trkpt lat="48.65878" lon="2.05372">
        <ele>160.63</ele>
        <time>2016-03-06T09:46:09Z</time>
      </trkpt>
      <trkpt lat="48.65859" lon="2.05364">
        <ele>160.81</ele>
        <time>2016-03-06T09:46:26Z</time>
      </trkpt>
      <trkpt lat="48.65834" lon="2.05353">
        <ele>161.29</ele>
        <time>2016-03-06T09:46:48Z</time>
      </trkpt>
      <trkpt lat="48.65818" lon="2.05347">
        <ele>161.22</ele>
        <time>2016-03-06T09:47:02Z</time>
      </trkpt>
      <trkpt lat="48.65796" lon="2.05337">
        <ele>161.52</ele>
        <time>2016-03-06T09:47:21Z</time>
      </trkpt>
      <trkpt lat="48.65777" lon="2.05328">
        <ele>161.63</ele>
        <time>2016-03-06T09:47:39Z</time>
      </trkpt>
      <trkpt lat="48.6577" lon="2.05326">
        <ele>161.41</ele>
        <time>2016-03-06T09:47:46Z</time>
      </trkpt>
      <trkpt lat="48.6575" lon="2.05315">
        <ele>161.45</ele>
        <time>2016-03-06T09:48:04Z</time>
      </trkpt>
      <trkpt lat="48.6573" lon="2.05303">
        <ele>161.66</ele>
        <time>2016-03-06T09:48:23Z</time>
      </trkpt>
      <trkpt lat="48.65709" lon="2.05291">
        <ele>162.03</ele>
        <time>2016-03-06T09:48:42Z</time>
      </trkpt>
      <trkpt lat="48.65692" lon="2.05277">
        <ele>162.41</ele>
        <time>2016-03-06T09:49:00Z</time>
      </trkpt>
      <trkpt lat="48.65685" lon="2.05274">
        <ele>162.41</ele>
        <time>2016-03-06T09:49:07Z</time>
      </trkpt>
      <trkpt lat="48.65671" lon="2.0526">
        <ele>162.51</ele>
        <time>2016-03-06T09:49:24Z</time>
      </trkpt>
      <trkpt lat="48.65655" lon="2.05249">
        <ele>162.58</ele>
        <time>2016-03-06T09:49:41Z</time>
      </trkpt>
      <trkpt lat="48.65648" lon="2.05244">
        <ele>163.1</ele>
        <time>2016-03-06T09:49:58Z</time>
      </trkpt>
      <trkpt lat="48.65647" lon="2.05241">
        <ele>163.52</ele>
        <time>2016-03-06T09:50:17Z</time>
      </trkpt>
      <trkpt lat="48.65623" lon="2.05232">
        <ele>163.75</ele>
        <time>2016-03-06T09:53:31Z</time>
      </trkpt>
      <trkpt lat="48.65607" lon="2.05221">
        <ele>164.2</ele>
        <time>2016-03-06T09:53:50Z</time>
      </trkpt>
      <trkpt lat="48.65599" lon="2.05217">
        <ele>164.05</ele>
        <time>2016-03-06T09:53:58Z</time>
      </trkpt>
      <trkpt lat="48.65595" lon="2.05215">
        <ele>163.97</ele>
        <time>2016-03-06T09:54:02Z</time>
      </trkpt>
      <trkpt lat="48.65575" lon="2.05205">
        <ele>164.37</ele>
        <time>2016-03-06T09:54:21Z</time>
      </trkpt>
      <trkpt lat="48.65557" lon="2.05198">
        <ele>164.35</ele>
        <time>2016-03-06T09:54:37Z</time>
      </trkpt>
      <trkpt lat="48.65545" lon="2.05192">
        <ele>164.48</ele>
        <time>2016-03-06T09:54:48Z</time>
      </trkpt>
      <trkpt lat="48.6553" lon="2.05183">
        <ele>164.51</ele>
        <time>2016-03-06T09:55:03Z</time>
      </trkpt>
      <trkpt lat="48.65508" lon="2.0517">
        <ele>164.82</ele>
        <time>2016-03-06T09:55:22Z</time>
      </trkpt>
      <trkpt lat="48.65486" lon="2.05159">
        <ele>164.08</ele>
        <time>2016-03-06T09:55:40Z</time>
      </trkpt>
      <trkpt lat="48.65468" lon="2.05149">
        <ele>164.18</ele>
        <time>2016-03-06T09:55:57Z</time>
      </trkpt>
      <trkpt lat="48.65451" lon="2.05138">
        <ele>164.34</ele>
        <time>2016-03-06T09:56:13Z</time>
      </trkpt>
      <trkpt lat="48.65433" lon="2.05124">
        <ele>164.17</ele>
        <time>2016-03-06T09:56:31Z</time>
      </trkpt>
      <trkpt lat="48.65412" lon="2.05104">
        <ele>163.7</ele>
        <time>2016-03-06T09:56:50Z</time>
      </trkpt>
      <trkpt lat="48.65396" lon="2.05085">
        <ele>162.97</ele>
        <time>2016-03-06T09:57:07Z</time>
      </trkpt>
      <trkpt lat="48.65381" lon="2.05068">
        <ele>162.67</ele>
        <time>2016-03-06T09:57:22Z</time>
      </trkpt>
      <trkpt lat="48.65368" lon="2.05049">
        <ele>162.66</ele>
        <time>2016-03-06T09:57:37Z</time>
      </trkpt>
      <trkpt lat="48.65354" lon="2.0503">
        <ele>162.6</ele>
        <time>2016-03-06T09:57:52Z</time>
      </trkpt>
      <trkpt lat="48.65339" lon="2.05011">
        <ele>162.77</ele>
        <time>2016-03-06T09:58:08Z</time>
      </trkpt>
      <trkpt lat="48.65334" lon="2.05004">
        <ele>162.43</ele>
        <time>2016-03-06T09:58:14Z</time>
      </trkpt>
      <trkpt lat="48.65317" lon="2.04978">
        <ele>162.27</ele>
        <time>2016-03-06T09:58:34Z</time>
      </trkpt>
      <trkpt lat="48.65304" lon="2.04959">
        <ele>161.83</ele>
        <time>2016-03-06T09:58:50Z</time>
      </trkpt>
      <trkpt lat="48.65291" lon="2.0494">
        <ele>161.85</ele>
        <time>2016-03-06T09:59:07Z</time>
      </trkpt>
      <trkpt lat="48.65278" lon="2.04918">
        <ele>161.14</ele>
        <time>2016-03-06T09:59:24Z</time>
      </trkpt>
      <trkpt lat="48.65264" lon="2.04899">
        <ele>161.64</ele>
        <time>2016-03-06T09:59:41Z</time>
      </trkpt>
      <trkpt lat="48.6525" lon="2.04879">
        <ele>161.12</ele>
        <time>2016-03-06T09:59:57Z</time>
      </trkpt>
      <trkpt lat="48.65233" lon="2.04857">
        <ele>161.01</ele>
        <time>2016-03-06T10:00:16Z</time>
      </trkpt>
      <trkpt lat="48.65221" lon="2.04842">
        <ele>160.87</ele>
        <time>2016-03-06T10:00:31Z</time>
      </trkpt>
      <trkpt lat="48.65205" lon="2.04825">
        <ele>161.04</ele>
        <time>2016-03-06T10:00:47Z</time>
      </trkpt>
      <trkpt lat="48.65202" lon="2.0482">
        <ele>160.97</ele>
        <time>2016-03-06T10:00:51Z</time>
      </trkpt>
      <trkpt lat="48.65187" lon="2.04804">
        <ele>159.69</ele>
        <time>2016-03-06T10:01:10Z</time>
      </trkpt>
      <trkpt lat="48.65184" lon="2.04802">
        <ele>160.51</ele>
        <time>2016-03-06T10:01:36Z</time>
      </trkpt>
      <trkpt lat="48.65171" lon="2.04863">
        <ele>161.15</ele>
        <time>2016-03-06T10:04:19Z</time>
      </trkpt>
      <trkpt lat="48.65172" lon="2.04868">
        <ele>161.14</ele>
        <time>2016-03-06T10:04:22Z</time>
      </trkpt>
      <trkpt lat="48.6517" lon="2.04893">
        <ele>161.57</ele>
        <time>2016-03-06T10:04:39Z</time>
      </trkpt>
      <trkpt lat="48.65166" lon="2.04924">
        <ele>162.01</ele>
        <time>2016-03-06T10:04:57Z</time>
      </trkpt>
      <trkpt lat="48.65161" lon="2.04955">
        <ele>162.08</ele>
        <time>2016-03-06T10:05:18Z</time>
      </trkpt>
      <trkpt lat="48.65155" lon="2.04979">
        <ele>162.29</ele>
        <time>2016-03-06T10:05:34Z</time>
      </trkpt>
      <trkpt lat="48.65152" lon="2.05004">
        <ele>162.14</ele>
        <time>2016-03-06T10:05:51Z</time>
      </trkpt>
      <trkpt lat="48.65148" lon="2.05032">
        <ele>161.78</ele>
        <time>2016-03-06T10:06:08Z</time>
      </trkpt>
      <trkpt lat="48.65145" lon="2.05052">
        <ele>161.39</ele>
        <time>2016-03-06T10:06:21Z</time>
      </trkpt>
      <trkpt lat="48.65141" lon="2.05081">
        <ele>161.06</ele>
        <time>2016-03-06T10:06:36Z</time>
      </trkpt>
      <trkpt lat="48.65139" lon="2.05088">
        <ele>161.03</ele>
        <time>2016-03-06T10:06:40Z</time>
      </trkpt>
      <trkpt lat="48.65137" lon="2.05114">
        <ele>160.79</ele>
        <time>2016-03-06T10:06:57Z</time>
      </trkpt>
      <trkpt lat="48.6514" lon="2.05142">
        <ele>160.38</ele>
        <time>2016-03-06T10:07:13Z</time>
      </trkpt>
      <trkpt lat="48.65141" lon="2.05154">
        <ele>160.39</ele>
        <time>2016-03-06T10:07:19Z</time>
      </trkpt>
      <trkpt lat="48.65147" lon="2.05184">
        <ele>159.87</ele>
        <time>2016-03-06T10:07:35Z</time>
      </trkpt>
      <trkpt lat="48.65145" lon="2.05201">
        <ele>160.1</ele>
        <time>2016-03-06T10:07:47Z</time>
      </trkpt>
      <trkpt lat="48.6514" lon="2.05218">
        <ele>160.37</ele>
        <time>2016-03-06T10:07:59Z</time>
      </trkpt>
      <trkpt lat="48.65132" lon="2.05243">
        <ele>160.34</ele>
        <time>2016-03-06T10:08:15Z</time>
      </trkpt>
      <trkpt lat="48.65121" lon="2.05274">
        <ele>160.19</ele>
        <time>2016-03-06T10:08:35Z</time>
      </trkpt>
      <trkpt lat="48.65119" lon="2.05281">
        <ele>160.17</ele>
        <time>2016-03-06T10:08:40Z</time>
      </trkpt>
      <trkpt lat="48.65113" lon="2.053">
        <ele>160.25</ele>
        <time>2016-03-06T10:08:53Z</time>
      </trkpt>
      <trkpt lat="48.65108" lon="2.05319">
        <ele>160.4</ele>
        <time>2016-03-06T10:09:05Z</time>
      </trkpt>
      <trkpt lat="48.65104" lon="2.05341">
        <ele>160.7</ele>
        <time>2016-03-06T10:09:19Z</time>
      </trkpt>
      <trkpt lat="48.65101" lon="2.05355">
        <ele>161.02</ele>
        <time>2016-03-06T10:09:28Z</time>
      </trkpt>
      <trkpt lat="48.65096" lon="2.05378">
        <ele>161.03</ele>
        <time>2016-03-06T10:09:43Z</time>
      </trkpt>
      <trkpt lat="48.65091" lon="2.05401">
        <ele>160.87</ele>
        <time>2016-03-06T10:09:57Z</time>
      </trkpt>
      <trkpt lat="48.65087" lon="2.05426">
        <ele>161.15</ele>
        <time>2016-03-06T10:10:13Z</time>
      </trkpt>
      <trkpt lat="48.65084" lon="2.05435">
        <ele>161.26</ele>
        <time>2016-03-06T10:10:18Z</time>
      </trkpt>
      <trkpt lat="48.65082" lon="2.0544">
        <ele>161.26</ele>
        <time>2016-03-06T10:10:21Z</time>
      </trkpt>
      <trkpt lat="48.65078" lon="2.05463">
        <ele>161.55</ele>
        <time>2016-03-06T10:10:34Z</time>
      </trkpt>
      <trkpt lat="48.65076" lon="2.05487">
        <ele>161.43</ele>
        <time>2016-03-06T10:10:49Z</time>
      </trkpt>
      <trkpt lat="48.65076" lon="2.05489">
        <ele>161.33</ele>
        <time>2016-03-06T10:10:51Z</time>
      </trkpt>
      <trkpt lat="48.6507" lon="2.05516">
        <ele>161.27</ele>
        <time>2016-03-06T10:11:07Z</time>
      </trkpt>
      <trkpt lat="48.65065" lon="2.05544">
        <ele>161.2</ele>
        <time>2016-03-06T10:11:23Z</time>
      </trkpt>
      <trkpt lat="48.65058" lon="2.05572">
        <ele>161.25</ele>
        <time>2016-03-06T10:11:39Z</time>
      </trkpt>
      <trkpt lat="48.65054" lon="2.05592">
        <ele>161.66</ele>
        <time>2016-03-06T10:11:53Z</time>
      </trkpt>
      <trkpt lat="48.65055" lon="2.05618">
        <ele>162.17</ele>
        <time>2016-03-06T10:12:09Z</time>
      </trkpt>
      <trkpt lat="48.65054" lon="2.05648">
        <ele>161.79</ele>
        <time>2016-03-06T10:12:26Z</time>
      </trkpt>
      <trkpt lat="48.6505" lon="2.05673">
        <ele>161.51</ele>
        <time>2016-03-06T10:12:38Z</time>
      </trkpt>
      <trkpt lat="48.65049" lon="2.057">
        <ele>161.31</ele>
        <time>2016-03-06T10:12:53Z</time>
      </trkpt>
      <trkpt lat="48.65049" lon="2.05731">
        <ele>161.03</ele>
        <time>2016-03-06T10:13:09Z</time>
      </trkpt>
      <trkpt lat="48.65049" lon="2.05732">
        <ele>161.02</ele>
        <time>2016-03-06T10:13:10Z</time>
      </trkpt>
      <trkpt lat="48.65048" lon="2.05746">
        <ele>160.97</ele>
        <time>2016-03-06T10:13:18Z</time>
      </trkpt>
      <trkpt lat="48.65046" lon="2.05764">
        <ele>160.86</ele>
        <time>2016-03-06T10:13:28Z</time>
      </trkpt>
      <trkpt lat="48.65046" lon="2.05788">
        <ele>160.7</ele>
        <time>2016-03-06T10:13:41Z</time>
      </trkpt>
      <trkpt lat="48.65045" lon="2.05808">
        <ele>160.31</ele>
        <time>2016-03-06T10:13:53Z</time>
      </trkpt>
      <trkpt lat="48.65043" lon="2.05836">
        <ele>159.89</ele>
        <time>2016-03-06T10:14:09Z</time>
      </trkpt>
      <trkpt lat="48.65042" lon="2.05863">
        <ele>159.76</ele>
        <time>2016-03-06T10:14:25Z</time>
      </trkpt>
      <trkpt lat="48.65041" lon="2.05903">
        <ele>159.66</ele>
        <time>2016-03-06T10:14:49Z</time>
      </trkpt>
      <trkpt lat="48.65038" lon="2.05927">
        <ele>159.6</ele>
        <time>2016-03-06T10:15:03Z</time>
      </trkpt>
      <trkpt lat="48.65038" lon="2.05948">
        <ele>159.5</ele>
        <time>2016-03-06T10:15:15Z</time>
      </trkpt>
      <trkpt lat="48.65037" lon="2.0596">
        <ele>159.48</ele>
        <time>2016-03-06T10:15:22Z</time>
      </trkpt>
      <trkpt lat="48.65037" lon="2.05965">
        <ele>159.38</ele>
        <time>2016-03-06T10:15:26Z</time>
      </trkpt>
      <trkpt lat="48.65037" lon="2.05972">
        <ele>159.26</ele>
        <time>2016-03-06T10:15:29Z</time>
      </trkpt>
      <trkpt lat="48.65037" lon="2.05978">
        <ele>159.14</ele>
        <time>2016-03-06T10:15:32Z</time>
      </trkpt>
      <trkpt lat="48.65034" lon="2.06008">
        <ele>158.78</ele>
        <time>2016-03-06T10:15:50Z</time>
      </trkpt>
      <trkpt lat="48.65034" lon="2.0603">
        <ele>158.61</ele>
        <time>2016-03-06T10:16:03Z</time>
      </trkpt>
      <trkpt lat="48.65033" lon="2.06051">
        <ele>158.59</ele>
        <time>2016-03-06T10:16:14Z</time>
      </trkpt>
      <trkpt lat="48.65033" lon="2.06075">
        <ele>158.45</ele>
        <time>2016-03-06T10:16:28Z</time>
      </trkpt>
      <trkpt lat="48.6503" lon="2.061">
        <ele>158.81</ele>
        <time>2016-03-06T10:16:43Z</time>
      </trkpt>
      <trkpt lat="48.6503" lon="2.06133">
        <ele>159.15</ele>
        <time>2016-03-06T10:17:04Z</time>
      </trkpt>
      <trkpt lat="48.65031" lon="2.06166">
        <ele>159.79</ele>
        <time>2016-03-06T10:17:26Z</time>
      </trkpt>
      <trkpt lat="48.65026" lon="2.06196">
        <ele>159.56</ele>
        <time>2016-03-06T10:17:48Z</time>
      </trkpt>
      <trkpt lat="48.65027" lon="2.06227">
        <ele>159.35</ele>
        <time>2016-03-06T10:18:09Z</time>
      </trkpt>
      <trkpt lat="48.65028" lon="2.06228">
        <ele>159.34</ele>
        <time>2016-03-06T10:18:10Z</time>
      </trkpt>
      <trkpt lat="48.65035" lon="2.06243">
        <ele>159.62</ele>
        <time>2016-03-06T10:18:20Z</time>
      </trkpt>
      <trkpt lat="48.65046" lon="2.06258">
        <ele>159.52</ele>
        <time>2016-03-06T10:18:34Z</time>
      </trkpt>
      <trkpt lat="48.65062" lon="2.06267">
        <ele>159.8</ele>
        <time>2016-03-06T10:18:48Z</time>
      </trkpt>
      <trkpt lat="48.65082" lon="2.06276">
        <ele>160.08</ele>
        <time>2016-03-06T10:19:05Z</time>
      </trkpt>
      <trkpt lat="48.65101" lon="2.06288">
        <ele>160.45</ele>
        <time>2016-03-06T10:19:20Z</time>
      </trkpt>
      <trkpt lat="48.65116" lon="2.06301">
        <ele>161.16</ele>
        <time>2016-03-06T10:19:35Z</time>
      </trkpt>
      <trkpt lat="48.65131" lon="2.06312">
        <ele>161.07</ele>
        <time>2016-03-06T10:19:51Z</time>
      </trkpt>
      <trkpt lat="48.65148" lon="2.06325">
        <ele>161.42</ele>
        <time>2016-03-06T10:20:06Z</time>
      </trkpt>
      <trkpt lat="48.65149" lon="2.06326">
        <ele>161.44</ele>
        <time>2016-03-06T10:20:07Z</time>
      </trkpt>
      <trkpt lat="48.65165" lon="2.0634">
        <ele>161.77</ele>
        <time>2016-03-06T10:20:23Z</time>
      </trkpt>
      <trkpt lat="48.6518" lon="2.06351">
        <ele>162.46</ele>
        <time>2016-03-06T10:20:37Z</time>
      </trkpt>
      <trkpt lat="48.65194" lon="2.06364">
        <ele>162.45</ele>
        <time>2016-03-06T10:20:52Z</time>
      </trkpt>
      <trkpt lat="48.65211" lon="2.06376">
        <ele>162.71</ele>
        <time>2016-03-06T10:21:07Z</time>
      </trkpt>
      <trkpt lat="48.65221" lon="2.06382">
        <ele>162.69</ele>
        <time>2016-03-06T10:21:17Z</time>
      </trkpt>
      <trkpt lat="48.65229" lon="2.06389">
        <ele>162.66</ele>
        <time>2016-03-06T10:21:26Z</time>
      </trkpt>
      <trkpt lat="48.65236" lon="2.06394">
        <ele>162.88</ele>
        <time>2016-03-06T10:21:33Z</time>
      </trkpt>
      <trkpt lat="48.6525" lon="2.06406">
        <ele>163.08</ele>
        <time>2016-03-06T10:21:49Z</time>
      </trkpt>
      <trkpt lat="48.65266" lon="2.06417">
        <ele>163.69</ele>
        <time>2016-03-06T10:22:05Z</time>
      </trkpt>
      <trkpt lat="48.6528" lon="2.06428">
        <ele>163.35</ele>
        <time>2016-03-06T10:22:20Z</time>
      </trkpt>
      <trkpt lat="48.65295" lon="2.06444">
        <ele>163.84</ele>
        <time>2016-03-06T10:22:35Z</time>
      </trkpt>
      <trkpt lat="48.65297" lon="2.06447">
        <ele>163.78</ele>
        <time>2016-03-06T10:22:37Z</time>
      </trkpt>
      <trkpt lat="48.65299" lon="2.06456">
        <ele>163.57</ele>
        <time>2016-03-06T10:22:43Z</time>
      </trkpt>
      <trkpt lat="48.65302" lon="2.06463">
        <ele>163.67</ele>
        <time>2016-03-06T10:22:47Z</time>
      </trkpt>
      <trkpt lat="48.65315" lon="2.06487">
        <ele>163.82</ele>
        <time>2016-03-06T10:23:04Z</time>
      </trkpt>
      <trkpt lat="48.65316" lon="2.06488">
        <ele>163.78</ele>
        <time>2016-03-06T10:23:05Z</time>
      </trkpt>
      <trkpt lat="48.65323" lon="2.06498">
        <ele>163.7</ele>
        <time>2016-03-06T10:23:13Z</time>
      </trkpt>
      <trkpt lat="48.65336" lon="2.06525">
        <ele>163.72</ele>
        <time>2016-03-06T10:23:32Z</time>
      </trkpt>
      <trkpt lat="48.65346" lon="2.06539">
        <ele>163.66</ele>
        <time>2016-03-06T10:23:45Z</time>
      </trkpt>
      <trkpt lat="48.65364" lon="2.06545">
        <ele>163.47</ele>
        <time>2016-03-06T10:24:02Z</time>
      </trkpt>
      <trkpt lat="48.65373" lon="2.06548">
        <ele>163.45</ele>
        <time>2016-03-06T10:24:11Z</time>
      </trkpt>
      <trkpt lat="48.65387" lon="2.06573">
        <ele>163.8</ele>
        <time>2016-03-06T10:24:30Z</time>
      </trkpt>
      <trkpt lat="48.65404" lon="2.06593">
        <ele>163.77</ele>
        <time>2016-03-06T10:24:47Z</time>
      </trkpt>
      <trkpt lat="48.65416" lon="2.06607">
        <ele>163.79</ele>
        <time>2016-03-06T10:25:00Z</time>
      </trkpt>
      <trkpt lat="48.65426" lon="2.06619">
        <ele>163.83</ele>
        <time>2016-03-06T10:25:11Z</time>
      </trkpt>
      <trkpt lat="48.6543" lon="2.06626">
        <ele>164.17</ele>
        <time>2016-03-06T10:25:16Z</time>
      </trkpt>
      <trkpt lat="48.65439" lon="2.06638">
        <ele>164.3</ele>
        <time>2016-03-06T10:25:26Z</time>
      </trkpt>
      <trkpt lat="48.65444" lon="2.06647">
        <ele>164.22</ele>
        <time>2016-03-06T10:25:33Z</time>
      </trkpt>
      <trkpt lat="48.65446" lon="2.06649">
        <ele>164.17</ele>
        <time>2016-03-06T10:25:35Z</time>
      </trkpt>
      <trkpt lat="48.65451" lon="2.06662">
        <ele>164.18</ele>
        <time>2016-03-06T10:25:43Z</time>
      </trkpt>
      <trkpt lat="48.65459" lon="2.06685">
        <ele>164.03</ele>
        <time>2016-03-06T10:25:58Z</time>
      </trkpt>
      <trkpt lat="48.65461" lon="2.06691">
        <ele>164.22</ele>
        <time>2016-03-06T10:26:02Z</time>
      </trkpt>
      <trkpt lat="48.65464" lon="2.06701">
        <ele>164.63</ele>
        <time>2016-03-06T10:26:08Z</time>
      </trkpt>
      <trkpt lat="48.65466" lon="2.06713">
        <ele>164.83</ele>
        <time>2016-03-06T10:26:15Z</time>
      </trkpt>
      <trkpt lat="48.65468" lon="2.06725">
        <ele>164.78</ele>
        <time>2016-03-06T10:26:22Z</time>
      </trkpt>
      <trkpt lat="48.6547" lon="2.06753">
        <ele>164.77</ele>
        <time>2016-03-06T10:26:38Z</time>
      </trkpt>
      <trkpt lat="48.65472" lon="2.06778">
        <ele>164.96</ele>
        <time>2016-03-06T10:26:52Z</time>
      </trkpt>
      <trkpt lat="48.65475" lon="2.06808">
        <ele>165.28</ele>
        <time>2016-03-06T10:27:09Z</time>
      </trkpt>
      <trkpt lat="48.65476" lon="2.06823">
        <ele>165.38</ele>
        <time>2016-03-06T10:27:17Z</time>
      </trkpt>
      <trkpt lat="48.6548" lon="2.06851">
        <ele>165.22</ele>
        <time>2016-03-06T10:27:33Z</time>
      </trkpt>
      <trkpt lat="48.65484" lon="2.06883">
        <ele>165.33</ele>
        <time>2016-03-06T10:27:50Z</time>
      </trkpt>
      <trkpt lat="48.65487" lon="2.06913">
        <ele>165.1</ele>
        <time>2016-03-06T10:28:07Z</time>
      </trkpt>
      <trkpt lat="48.65487" lon="2.06923">
        <ele>165.39</ele>
        <time>2016-03-06T10:28:24Z</time>
      </trkpt>
      <trkpt lat="48.65487" lon="2.06924">
        <ele>165.5</ele>
        <time>2016-03-06T10:28:42Z</time>
      </trkpt>
      <trkpt lat="48.65503" lon="2.0693">
        <ele>165.86</ele>
        <time>2016-03-06T10:30:35Z</time>
      </trkpt>
      <trkpt lat="48.65517" lon="2.06921">
        <ele>166.63</ele>
        <time>2016-03-06T10:30:49Z</time>
      </trkpt>
      <trkpt lat="48.65528" lon="2.06913">
        <ele>166.5</ele>
        <time>2016-03-06T10:31:00Z</time>
      </trkpt>
      <trkpt lat="48.6554" lon="2.06905">
        <ele>166.24</ele>
        <time>2016-03-06T10:31:11Z</time>
      </trkpt>
      <trkpt lat="48.6555" lon="2.06897">
        <ele>165.93</ele>
        <time>2016-03-06T10:31:21Z</time>
      </trkpt>
      <trkpt lat="48.65553" lon="2.06894">
        <ele>165.84</ele>
        <time>2016-03-06T10:31:25Z</time>
      </trkpt>
      <trkpt lat="48.65559" lon="2.0689">
        <ele>165.83</ele>
        <time>2016-03-06T10:31:32Z</time>
      </trkpt>
      <trkpt lat="48.65566" lon="2.06884">
        <ele>165.53</ele>
        <time>2016-03-06T10:31:38Z</time>
      </trkpt>
      <trkpt lat="48.6558" lon="2.06874">
        <ele>165.85</ele>
        <time>2016-03-06T10:31:53Z</time>
      </trkpt>
      <trkpt lat="48.65594" lon="2.06864">
        <ele>165.91</ele>
        <time>2016-03-06T10:32:07Z</time>
      </trkpt>
      <trkpt lat="48.65616" lon="2.06847">
        <ele>166.58</ele>
        <time>2016-03-06T10:32:30Z</time>
      </trkpt>
      <trkpt lat="48.65622" lon="2.06844">
        <ele>166.54</ele>
        <time>2016-03-06T10:32:35Z</time>
      </trkpt>
      <trkpt lat="48.65626" lon="2.0684">
        <ele>166.41</ele>
        <time>2016-03-06T10:32:39Z</time>
      </trkpt>
      <trkpt lat="48.65641" lon="2.06827">
        <ele>166.49</ele>
        <time>2016-03-06T10:32:54Z</time>
      </trkpt>
      <trkpt lat="48.65658" lon="2.06815">
        <ele>166.3</ele>
        <time>2016-03-06T10:33:08Z</time>
      </trkpt>
      <trkpt lat="48.65675" lon="2.06803">
        <ele>166.28</ele>
        <time>2016-03-06T10:33:24Z</time>
      </trkpt>
      <trkpt lat="48.65693" lon="2.0679">
        <ele>166.33</ele>
        <time>2016-03-06T10:33:41Z</time>
      </trkpt>
      <trkpt lat="48.65709" lon="2.06777">
        <ele>166.48</ele>
        <time>2016-03-06T10:33:56Z</time>
      </trkpt>
      <trkpt lat="48.65729" lon="2.06763">
        <ele>166.86</ele>
        <time>2016-03-06T10:34:13Z</time>
      </trkpt>
      <trkpt lat="48.65734" lon="2.06759">
        <ele>166.87</ele>
        <time>2016-03-06T10:34:18Z</time>
      </trkpt>
      <trkpt lat="48.65754" lon="2.06745">
        <ele>166.77</ele>
        <time>2016-03-06T10:34:36Z</time>
      </trkpt>
      <trkpt lat="48.65773" lon="2.06731">
        <ele>166.87</ele>
        <time>2016-03-06T10:34:53Z</time>
      </trkpt>
      <trkpt lat="48.65792" lon="2.06718">
        <ele>167.11</ele>
        <time>2016-03-06T10:35:10Z</time>
      </trkpt>
      <trkpt lat="48.65807" lon="2.06708">
        <ele>167.26</ele>
        <time>2016-03-06T10:35:24Z</time>
      </trkpt>
      <trkpt lat="48.65821" lon="2.067">
        <ele>167.38</ele>
        <time>2016-03-06T10:35:35Z</time>
      </trkpt>
      <trkpt lat="48.65828" lon="2.06696">
        <ele>167.45</ele>
        <time>2016-03-06T10:35:41Z</time>
      </trkpt>
      <trkpt lat="48.65834" lon="2.06692">
        <ele>167.62</ele>
        <time>2016-03-06T10:35:47Z</time>
      </trkpt>
      <trkpt lat="48.65851" lon="2.06683">
        <ele>167.6</ele>
        <time>2016-03-06T10:36:01Z</time>
      </trkpt>
      <trkpt lat="48.65864" lon="2.06676">
        <ele>167.32</ele>
        <time>2016-03-06T10:36:12Z</time>
      </trkpt>
      <trkpt lat="48.65865" lon="2.06675">
        <ele>167.29</ele>
        <time>2016-03-06T10:36:13Z</time>
      </trkpt>
      <trkpt lat="48.6588" lon="2.06667">
        <ele>167.13</ele>
        <time>2016-03-06T10:36:27Z</time>
      </trkpt>
      <trkpt lat="48.65894" lon="2.06659">
        <ele>167.12</ele>
        <time>2016-03-06T10:36:40Z</time>
      </trkpt>
      <trkpt lat="48.65902" lon="2.06655">
        <ele>167</ele>
        <time>2016-03-06T10:36:47Z</time>
      </trkpt>
      <trkpt lat="48.65922" lon="2.06648">
        <ele>166.77</ele>
        <time>2016-03-06T10:37:04Z</time>
      </trkpt>
      <trkpt lat="48.6593" lon="2.06644">
        <ele>166.88</ele>
        <time>2016-03-06T10:37:10Z</time>
      </trkpt>
      <trkpt lat="48.65945" lon="2.06634">
        <ele>166.76</ele>
        <time>2016-03-06T10:37:24Z</time>
      </trkpt>
      <trkpt lat="48.65963" lon="2.06621">
        <ele>166.67</ele>
        <time>2016-03-06T10:37:39Z</time>
      </trkpt>
      <trkpt lat="48.65976" lon="2.06613">
        <ele>166.61</ele>
        <time>2016-03-06T10:37:52Z</time>
      </trkpt>
      <trkpt lat="48.65994" lon="2.06603">
        <ele>166.99</ele>
        <time>2016-03-06T10:38:09Z</time>
      </trkpt>
      <trkpt lat="48.6601" lon="2.06593">
        <ele>166.8</ele>
        <time>2016-03-06T10:38:26Z</time>
      </trkpt>
      <trkpt lat="48.66029" lon="2.06583">
        <ele>166.75</ele>
        <time>2016-03-06T10:38:42Z</time>
      </trkpt>
      <trkpt lat="48.66047" lon="2.06574">
        <ele>166.96</ele>
        <time>2016-03-06T10:38:59Z</time>
      </trkpt>
      <trkpt lat="48.66068" lon="2.06561">
        <ele>167</ele>
        <time>2016-03-06T10:39:18Z</time>
      </trkpt>
      <trkpt lat="48.66083" lon="2.06554">
        <ele>166.56</ele>
        <time>2016-03-06T10:39:31Z</time>
      </trkpt>
      <trkpt lat="48.66093" lon="2.06548">
        <ele>166.52</ele>
        <time>2016-03-06T10:39:41Z</time>
      </trkpt>
      <trkpt lat="48.66107" lon="2.0654">
        <ele>165.92</ele>
        <time>2016-03-06T10:39:53Z</time>
      </trkpt>
      <trkpt lat="48.66118" lon="2.06533">
        <ele>166.13</ele>
        <time>2016-03-06T10:40:02Z</time>
      </trkpt>
      <trkpt lat="48.66121" lon="2.06532">
        <ele>166.13</ele>
        <time>2016-03-06T10:40:04Z</time>
      </trkpt>
      <trkpt lat="48.66123" lon="2.06531">
        <ele>166.09</ele>
        <time>2016-03-06T10:40:06Z</time>
      </trkpt>
      <trkpt lat="48.66141" lon="2.06519">
        <ele>166.22</ele>
        <time>2016-03-06T10:40:21Z</time>
      </trkpt>
      <trkpt lat="48.6616" lon="2.06509">
        <ele>166.17</ele>
        <time>2016-03-06T10:40:38Z</time>
      </trkpt>
      <trkpt lat="48.66177" lon="2.06501">
        <ele>166.58</ele>
        <time>2016-03-06T10:40:53Z</time>
      </trkpt>
      <trkpt lat="48.66192" lon="2.06492">
        <ele>166.43</ele>
        <time>2016-03-06T10:41:07Z</time>
      </trkpt>
      <trkpt lat="48.66208" lon="2.06485">
        <ele>166.68</ele>
        <time>2016-03-06T10:41:20Z</time>
      </trkpt>
      <trkpt lat="48.66228" lon="2.06478">
        <ele>168.1</ele>
        <time>2016-03-06T10:41:34Z</time>
      </trkpt>
      <trkpt lat="48.66246" lon="2.06474">
        <ele>166.87</ele>
        <time>2016-03-06T10:41:50Z</time>
      </trkpt>
      <trkpt lat="48.6626" lon="2.06474">
        <ele>166.8</ele>
        <time>2016-03-06T10:42:01Z</time>
      </trkpt>
      <trkpt lat="48.66265" lon="2.06474">
        <ele>166.85</ele>
        <time>2016-03-06T10:42:05Z</time>
      </trkpt>
      <trkpt lat="48.66284" lon="2.06472">
        <ele>166.11</ele>
        <time>2016-03-06T10:42:22Z</time>
      </trkpt>
      <trkpt lat="48.66301" lon="2.06472">
        <ele>166.03</ele>
        <time>2016-03-06T10:42:36Z</time>
      </trkpt>
      <trkpt lat="48.66319" lon="2.06473">
        <ele>166.14</ele>
        <time>2016-03-06T10:42:50Z</time>
      </trkpt>
      <trkpt lat="48.66333" lon="2.06473">
        <ele>166.35</ele>
        <time>2016-03-06T10:43:03Z</time>
      </trkpt>
      <trkpt lat="48.66342" lon="2.06475">
        <ele>166.4</ele>
        <time>2016-03-06T10:43:09Z</time>
      </trkpt>
      <trkpt lat="48.66348" lon="2.06475">
        <ele>166.23</ele>
        <time>2016-03-06T10:43:14Z</time>
      </trkpt>
      <trkpt lat="48.66367" lon="2.06476">
        <ele>166.42</ele>
        <time>2016-03-06T10:43:29Z</time>
      </trkpt>
      <trkpt lat="48.66378" lon="2.06477">
        <ele>166.09</ele>
        <time>2016-03-06T10:43:37Z</time>
      </trkpt>
      <trkpt lat="48.66382" lon="2.06478">
        <ele>165.91</ele>
        <time>2016-03-06T10:43:40Z</time>
      </trkpt>
      <trkpt lat="48.66387" lon="2.06478">
        <ele>165.85</ele>
        <time>2016-03-06T10:43:43Z</time>
      </trkpt>
      <trkpt lat="48.66408" lon="2.06483">
        <ele>165.75</ele>
        <time>2016-03-06T10:43:58Z</time>
      </trkpt>
      <trkpt lat="48.66429" lon="2.06488">
        <ele>165.33</ele>
        <time>2016-03-06T10:44:15Z</time>
      </trkpt>
      <trkpt lat="48.66455" lon="2.06487">
        <ele>165.45</ele>
        <time>2016-03-06T10:44:35Z</time>
      </trkpt>
      <trkpt lat="48.66462" lon="2.06487">
        <ele>165.43</ele>
        <time>2016-03-06T10:44:40Z</time>
      </trkpt>
      <trkpt lat="48.66484" lon="2.0649">
        <ele>165.49</ele>
        <time>2016-03-06T10:44:57Z</time>
      </trkpt>
      <trkpt lat="48.66497" lon="2.06492">
        <ele>164.98</ele>
        <time>2016-03-06T10:45:09Z</time>
      </trkpt>
      <trkpt lat="48.66513" lon="2.06495">
        <ele>165.8</ele>
        <time>2016-03-06T10:45:22Z</time>
      </trkpt>
      <trkpt lat="48.66517" lon="2.06498">
        <ele>165.57</ele>
        <time>2016-03-06T10:45:26Z</time>
      </trkpt>
      <trkpt lat="48.66532" lon="2.06501">
        <ele>164.61</ele>
        <time>2016-03-06T10:45:39Z</time>
      </trkpt>
      <trkpt lat="48.66549" lon="2.06502">
        <ele>164.71</ele>
        <time>2016-03-06T10:45:52Z</time>
      </trkpt>
      <trkpt lat="48.6657" lon="2.06505">
        <ele>165.22</ele>
        <time>2016-03-06T10:46:08Z</time>
      </trkpt>
      <trkpt lat="48.66583" lon="2.06505">
        <ele>164.83</ele>
        <time>2016-03-06T10:46:18Z</time>
      </trkpt>
      <trkpt lat="48.66587" lon="2.06504">
        <ele>164.76</ele>
        <time>2016-03-06T10:46:22Z</time>
      </trkpt>
      <trkpt lat="48.66591" lon="2.06505">
        <ele>164.72</ele>
        <time>2016-03-06T10:46:25Z</time>
      </trkpt>
      <trkpt lat="48.66592" lon="2.06519">
        <ele>164.72</ele>
        <time>2016-03-06T10:46:34Z</time>
      </trkpt>
      <trkpt lat="48.6659" lon="2.06533">
        <ele>164.64</ele>
        <time>2016-03-06T10:46:44Z</time>
      </trkpt>
      <trkpt lat="48.66588" lon="2.06553">
        <ele>164.5</ele>
        <time>2016-03-06T10:47:00Z</time>
      </trkpt>
      <trkpt lat="48.66583" lon="2.06576">
        <ele>164.94</ele>
        <time>2016-03-06T10:47:17Z</time>
      </trkpt>
      <trkpt lat="48.66577" lon="2.06615">
        <ele>165.11</ele>
        <time>2016-03-06T10:47:42Z</time>
      </trkpt>
      <trkpt lat="48.66577" lon="2.06636">
        <ele>165.28</ele>
        <time>2016-03-06T10:47:56Z</time>
      </trkpt>
      <trkpt lat="48.66585" lon="2.06672">
        <ele>165.51</ele>
        <time>2016-03-06T10:48:20Z</time>
      </trkpt>
      <trkpt lat="48.66594" lon="2.06691">
        <ele>165.42</ele>
        <time>2016-03-06T10:48:34Z</time>
      </trkpt>
      <trkpt lat="48.66597" lon="2.06695">
        <ele>165.27</ele>
        <time>2016-03-06T10:48:38Z</time>
      </trkpt>
      <trkpt lat="48.6661" lon="2.06713">
        <ele>164.67</ele>
        <time>2016-03-06T10:48:54Z</time>
      </trkpt>
      <trkpt lat="48.66619" lon="2.06722">
        <ele>164.69</ele>
        <time>2016-03-06T10:49:04Z</time>
      </trkpt>
      <trkpt lat="48.66626" lon="2.06732">
        <ele>164.56</ele>
        <time>2016-03-06T10:49:14Z</time>
      </trkpt>
      <trkpt lat="48.66636" lon="2.06743">
        <ele>164.38</ele>
        <time>2016-03-06T10:49:26Z</time>
      </trkpt>
      <trkpt lat="48.66646" lon="2.06754">
        <ele>164.68</ele>
        <time>2016-03-06T10:49:37Z</time>
      </trkpt>
      <trkpt lat="48.66653" lon="2.06762">
        <ele>164.4</ele>
        <time>2016-03-06T10:49:48Z</time>
      </trkpt>
      <trkpt lat="48.66653" lon="2.06763">
        <ele>164.44</ele>
        <time>2016-03-06T10:49:49Z</time>
      </trkpt>
      <trkpt lat="48.66658" lon="2.06768">
        <ele>164.55</ele>
        <time>2016-03-06T10:49:55Z</time>
      </trkpt>
      <trkpt lat="48.66669" lon="2.06779">
        <ele>163.54</ele>
        <time>2016-03-06T10:50:07Z</time>
      </trkpt>
      <trkpt lat="48.6668" lon="2.0679">
        <ele>163.15</ele>
        <time>2016-03-06T10:50:20Z</time>
      </trkpt>
      <trkpt lat="48.66695" lon="2.06802">
        <ele>163.19</ele>
        <time>2016-03-06T10:50:35Z</time>
      </trkpt>
      <trkpt lat="48.66699" lon="2.06808">
        <ele>163.03</ele>
        <time>2016-03-06T10:50:41Z</time>
      </trkpt>
      <trkpt lat="48.6671" lon="2.06818">
        <ele>162.93</ele>
        <time>2016-03-06T10:50:53Z</time>
      </trkpt>
      <trkpt lat="48.6672" lon="2.06827">
        <ele>162.8</ele>
        <time>2016-03-06T10:51:04Z</time>
      </trkpt>
      <trkpt lat="48.66726" lon="2.06834">
        <ele>162.68</ele>
        <time>2016-03-06T10:51:12Z</time>
      </trkpt>
      <trkpt lat="48.66736" lon="2.06846">
        <ele>162.5</ele>
        <time>2016-03-06T10:51:25Z</time>
      </trkpt>
      <trkpt lat="48.66737" lon="2.06847">
        <ele>162.5</ele>
        <time>2016-03-06T10:51:26Z</time>
      </trkpt>
      <trkpt lat="48.66749" lon="2.06862">
        <ele>162.16</ele>
        <time>2016-03-06T10:51:41Z</time>
      </trkpt>
      <trkpt lat="48.66758" lon="2.06875">
        <ele>162.06</ele>
        <time>2016-03-06T10:51:54Z</time>
      </trkpt>
      <trkpt lat="48.66772" lon="2.06892">
        <ele>161.95</ele>
        <time>2016-03-06T10:52:10Z</time>
      </trkpt>
      <trkpt lat="48.66783" lon="2.06904">
        <ele>161.97</ele>
        <time>2016-03-06T10:52:24Z</time>
      </trkpt>
      <trkpt lat="48.66798" lon="2.06921">
        <ele>161.43</ele>
        <time>2016-03-06T10:52:41Z</time>
      </trkpt>
      <trkpt lat="48.66812" lon="2.06933">
        <ele>161.05</ele>
        <time>2016-03-06T10:52:55Z</time>
      </trkpt>
      <trkpt lat="48.66829" lon="2.06941">
        <ele>160.59</ele>
        <time>2016-03-06T10:53:12Z</time>
      </trkpt>
      <trkpt lat="48.66846" lon="2.06946">
        <ele>160.62</ele>
        <time>2016-03-06T10:53:30Z</time>
      </trkpt>
      <trkpt lat="48.66851" lon="2.06947">
        <ele>160.59</ele>
        <time>2016-03-06T10:53:34Z</time>
      </trkpt>
      <trkpt lat="48.66854" lon="2.06947">
        <ele>160.47</ele>
        <time>2016-03-06T10:53:37Z</time>
      </trkpt>
      <trkpt lat="48.66863" lon="2.06949">
        <ele>160.42</ele>
        <time>2016-03-06T10:53:46Z</time>
      </trkpt>
      <trkpt lat="48.66867" lon="2.06951">
        <ele>160.47</ele>
        <time>2016-03-06T10:53:49Z</time>
      </trkpt>
      <trkpt lat="48.66881" lon="2.06955">
        <ele>160.34</ele>
        <time>2016-03-06T10:54:04Z</time>
      </trkpt>
      <trkpt lat="48.66901" lon="2.06961">
        <ele>160.49</ele>
        <time>2016-03-06T10:54:23Z</time>
      </trkpt>
      <trkpt lat="48.66918" lon="2.06967">
        <ele>160.73</ele>
        <time>2016-03-06T10:54:39Z</time>
      </trkpt>
      <trkpt lat="48.66936" lon="2.0697">
        <ele>160.5</ele>
        <time>2016-03-06T10:54:58Z</time>
      </trkpt>
      <trkpt lat="48.66942" lon="2.06969">
        <ele>160.93</ele>
        <time>2016-03-06T10:55:18Z</time>
      </trkpt>
      <trkpt lat="48.66946" lon="2.06969">
        <ele>160.8</ele>
        <time>2016-03-06T10:55:29Z</time>
      </trkpt>
      <trkpt lat="48.66951" lon="2.0697">
        <ele>161.1</ele>
        <time>2016-03-06T10:55:50Z</time>
      </trkpt>
      <trkpt lat="48.66955" lon="2.06974">
        <ele>160.75</ele>
        <time>2016-03-06T10:55:56Z</time>
      </trkpt>
      <trkpt lat="48.66969" lon="2.06975">
        <ele>160.26</ele>
        <time>2016-03-06T10:56:11Z</time>
      </trkpt>
      <trkpt lat="48.66976" lon="2.06979">
        <ele>160.11</ele>
        <time>2016-03-06T10:56:21Z</time>
      </trkpt>
      <trkpt lat="48.66982" lon="2.06984">
        <ele>160.12</ele>
        <time>2016-03-06T10:56:27Z</time>
      </trkpt>
      <trkpt lat="48.66984" lon="2.06986">
        <ele>160.24</ele>
        <time>2016-03-06T10:56:30Z</time>
      </trkpt>
      <trkpt lat="48.66988" lon="2.06989">
        <ele>160.35</ele>
        <time>2016-03-06T10:56:34Z</time>
      </trkpt>
      <trkpt lat="48.66993" lon="2.06994">
        <ele>160.49</ele>
        <time>2016-03-06T10:56:41Z</time>
      </trkpt>
      <trkpt lat="48.66998" lon="2.06999">
        <ele>160.56</ele>
        <time>2016-03-06T10:56:47Z</time>
      </trkpt>
      <trkpt lat="48.67003" lon="2.07004">
        <ele>160.49</ele>
        <time>2016-03-06T10:56:52Z</time>
      </trkpt>
      <trkpt lat="48.67014" lon="2.07018">
        <ele>160.82</ele>
        <time>2016-03-06T10:57:05Z</time>
      </trkpt>
      <trkpt lat="48.67018" lon="2.07022">
        <ele>160.91</ele>
        <time>2016-03-06T10:57:10Z</time>
      </trkpt>
      <trkpt lat="48.67027" lon="2.07035">
        <ele>160.96</ele>
        <time>2016-03-06T10:57:25Z</time>
      </trkpt>
      <trkpt lat="48.67036" lon="2.07047">
        <ele>161.47</ele>
        <time>2016-03-06T10:57:35Z</time>
      </trkpt>
      <trkpt lat="48.67043" lon="2.07054">
        <ele>161.94</ele>
        <time>2016-03-06T10:57:43Z</time>
      </trkpt>
      <trkpt lat="48.67054" lon="2.0707">
        <ele>162.68</ele>
        <time>2016-03-06T10:58:01Z</time>
      </trkpt>
      <trkpt lat="48.67065" lon="2.07086">
        <ele>163.05</ele>
        <time>2016-03-06T10:58:16Z</time>
      </trkpt>
      <trkpt lat="48.67067" lon="2.07091">
        <ele>163.54</ele>
        <time>2016-03-06T10:58:22Z</time>
      </trkpt>
      <trkpt lat="48.67072" lon="2.07099">
        <ele>163.92</ele>
        <time>2016-03-06T10:58:30Z</time>
      </trkpt>
      <trkpt lat="48.67076" lon="2.07103">
        <ele>164.16</ele>
        <time>2016-03-06T10:58:35Z</time>
      </trkpt>
      <trkpt lat="48.67083" lon="2.07113">
        <ele>164.98</ele>
        <time>2016-03-06T10:58:43Z</time>
      </trkpt>
      <trkpt lat="48.67092" lon="2.07128">
        <ele>165.67</ele>
        <time>2016-03-06T10:58:55Z</time>
      </trkpt>
      <trkpt lat="48.67105" lon="2.07142">
        <ele>166.32</ele>
        <time>2016-03-06T10:59:11Z</time>
      </trkpt>
      <trkpt lat="48.67106" lon="2.07142">
        <ele>166.33</ele>
        <time>2016-03-06T10:59:12Z</time>
      </trkpt>
      <trkpt lat="48.67118" lon="2.07149">
        <ele>166.59</ele>
        <time>2016-03-06T10:59:26Z</time>
      </trkpt>
      <trkpt lat="48.67131" lon="2.07146">
        <ele>166.66</ele>
        <time>2016-03-06T10:59:42Z</time>
      </trkpt>
      <trkpt lat="48.67136" lon="2.07143">
        <ele>166.97</ele>
        <time>2016-03-06T10:59:47Z</time>
      </trkpt>
      <trkpt lat="48.67148" lon="2.07129">
        <ele>167.33</ele>
        <time>2016-03-06T11:00:02Z</time>
      </trkpt>
      <trkpt lat="48.67158" lon="2.07115">
        <ele>167.43</ele>
        <time>2016-03-06T11:00:15Z</time>
      </trkpt>
      <trkpt lat="48.67169" lon="2.07101">
        <ele>167.63</ele>
        <time>2016-03-06T11:00:30Z</time>
      </trkpt>
      <trkpt lat="48.67173" lon="2.07094">
        <ele>167.84</ele>
        <time>2016-03-06T11:00:35Z</time>
      </trkpt>
      <trkpt lat="48.67178" lon="2.07087">
        <ele>167.99</ele>
        <time>2016-03-06T11:00:48Z</time>
      </trkpt>
      <trkpt lat="48.67182" lon="2.07082">
        <ele>168.12</ele>
        <time>2016-03-06T11:00:53Z</time>
      </trkpt>
      <trkpt lat="48.67187" lon="2.07072">
        <ele>168.26</ele>
        <time>2016-03-06T11:01:01Z</time>
      </trkpt>
      <trkpt lat="48.67199" lon="2.07059">
        <ele>168.31</ele>
        <time>2016-03-06T11:01:15Z</time>
      </trkpt>
      <trkpt lat="48.67202" lon="2.0705">
        <ele>168.4</ele>
        <time>2016-03-06T11:01:22Z</time>
      </trkpt>
      <trkpt lat="48.67203" lon="2.07047">
        <ele>168.37</ele>
        <time>2016-03-06T11:01:24Z</time>
      </trkpt>
      <trkpt lat="48.67207" lon="2.07041">
        <ele>168.77</ele>
        <time>2016-03-06T11:01:36Z</time>
      </trkpt>
      <trkpt lat="48.67208" lon="2.07038">
        <ele>168.86</ele>
        <time>2016-03-06T11:01:39Z</time>
      </trkpt>
      <trkpt lat="48.67211" lon="2.07032">
        <ele>168.93</ele>
        <time>2016-03-06T11:01:43Z</time>
      </trkpt>
      <trkpt lat="48.67215" lon="2.07021">
        <ele>169.07</ele>
        <time>2016-03-06T11:01:55Z</time>
      </trkpt>
      <trkpt lat="48.67218" lon="2.07017">
        <ele>169.1</ele>
        <time>2016-03-06T11:01:58Z</time>
      </trkpt>
      <trkpt lat="48.67236" lon="2.07">
        <ele>169.16</ele>
        <time>2016-03-06T11:02:14Z</time>
      </trkpt>
      <trkpt lat="48.67244" lon="2.06977">
        <ele>168.96</ele>
        <time>2016-03-06T11:02:29Z</time>
      </trkpt>
      <trkpt lat="48.67262" lon="2.06948">
        <ele>168.84</ele>
        <time>2016-03-06T11:02:50Z</time>
      </trkpt>
      <trkpt lat="48.67274" lon="2.06915">
        <ele>168.59</ele>
        <time>2016-03-06T11:03:15Z</time>
      </trkpt>
      <trkpt lat="48.67278" lon="2.06915">
        <ele>168.74</ele>
        <time>2016-03-06T11:03:19Z</time>
      </trkpt>
      <trkpt lat="48.67289" lon="2.06903">
        <ele>168.43</ele>
        <time>2016-03-06T11:03:36Z</time>
      </trkpt>
      <trkpt lat="48.673" lon="2.0691">
        <ele>168.36</ele>
        <time>2016-03-06T11:03:54Z</time>
      </trkpt>
      <trkpt lat="48.67309" lon="2.06916">
        <ele>168.66</ele>
        <time>2016-03-06T11:04:06Z</time>
      </trkpt>
      <trkpt lat="48.67323" lon="2.06919">
        <ele>168.73</ele>
        <time>2016-03-06T11:04:21Z</time>
      </trkpt>
      <trkpt lat="48.67329" lon="2.06923">
        <ele>168.52</ele>
        <time>2016-03-06T11:04:28Z</time>
      </trkpt>
      <trkpt lat="48.67332" lon="2.0693">
        <ele>168.68</ele>
        <time>2016-03-06T11:04:33Z</time>
      </trkpt>
      <trkpt lat="48.67333" lon="2.06936">
        <ele>168.72</ele>
        <time>2016-03-06T11:04:36Z</time>
      </trkpt>
      <trkpt lat="48.67334" lon="2.06954">
        <ele>169.26</ele>
        <time>2016-03-06T11:04:48Z</time>
      </trkpt>
      <trkpt lat="48.67334" lon="2.06958">
        <ele>169.39</ele>
        <time>2016-03-06T11:04:51Z</time>
      </trkpt>
      <trkpt lat="48.67337" lon="2.06979">
        <ele>169.43</ele>
        <time>2016-03-06T11:05:08Z</time>
      </trkpt>
      <trkpt lat="48.67337" lon="2.0698">
        <ele>177.26</ele>
        <time>2016-03-06T11:05:16Z</time>
      </trkpt>
    </trkseg>
  </trk>
</gpx>